M I D A S
Marine Information and Data Acquisition System
Tripno 1121 of the Zeeleeuw from 2006-04-24 09:05:44 to 2006-04-24 17:00:00
Back to CruiseResearch ActivitiesStationsMapUnderway DataData graphs

EquipmentUnitsComment
TimeDGPSUTC
LatitudeDGPSDM.mWGS84
LongitudeDGPSDM.mWGS84
TemperatureSBE03/SBE38deg celciusITS90
ConductivitySBE21S/mITS90
SalinitySBE21 Practical Salinity Units
ChlorophylAChelsea fluorimeterg/lCalibrated in Aceton
Missing or incorrect values are displayed as -999
Sea surface data collected by the RV Zeeleeuw from 2006-04-24 06:44:26 to 2006-04-24 09:08:08
                                                                                    Next 1000 lines
Time Latitude Longitude Temperature Conductivity Salinity ChlorophylA
2006-04-24 06:44:36 51°13.602 2°56.099 -999 4.997595 32.659272 3.702101
2006-04-24 06:44:41 51°13.602 2°56.099 -999 4.997491 32.658511 3.702101
2006-04-24 06:44:46 51°13.602 2°56.099 -999 4.997595 32.659794 3.668392
2006-04-24 06:44:51 51°13.602 2°56.099 -999 4.997491 32.659554 3.668392
2006-04-24 06:44:56 51°13.602 2°56.099 -999 4.997491 32.659554 3.702101
2006-04-24 06:45:01 51°13.602 2°56.099 -999 4.997388 32.658792 3.702101
2006-04-24 06:45:06 51°13.602 2°56.099 -999 4.997388 32.658792 3.702101
2006-04-24 06:45:11 51°13.602 2°56.099 -999 4.997388 32.658792 3.668392
2006-04-24 06:45:16 51°13.602 2°56.099 -999 4.997388 32.658792 3.702101
2006-04-24 06:45:21 51°13.602 2°56.099 -999 4.997388 32.658792 3.668392
2006-04-24 06:45:26 51°13.602 2°56.099 -999 4.997388 32.658792 3.702101
2006-04-24 06:45:31 51°13.602 2°56.099 -999 4.997284 32.659073 3.668392
2006-04-24 06:45:35 51°13.602 2°56.099 -999 4.997284 32.659073 3.668392
2006-04-24 06:45:41 51°13.602 2°56.099 -999 4.997284 32.659073 3.702101
2006-04-24 06:45:46 51°13.602 2°56.099 -999 4.997284 32.659595 3.702101
2006-04-24 06:45:51 51°13.602 2°56.099 -999 4.997284 32.660116 3.668392
2006-04-24 06:45:56 51°13.602 2°56.099 -999 4.997284 32.660116 3.668392
2006-04-24 06:46:01 51°13.602 2°56.099 -999 4.99718 32.659876 3.702101
2006-04-24 06:46:06 51°13.602 2°56.099 -999 4.99718 32.659876 3.702101
2006-04-24 06:46:11 51°13.602 2°56.099 -999 4.99718 32.659876 3.702101
2006-04-24 06:46:16 51°13.602 2°56.099 -999 4.99718 32.659876 3.702101
2006-04-24 06:46:21 51°13.602 2°56.099 -999 4.997076 32.659114 3.702101
2006-04-24 06:46:26 51°13.602 2°56.099 -999 4.997076 32.659114 3.668392
2006-04-24 06:46:31 51°13.602 2°56.099 -999 4.997076 32.659114 3.668392
2006-04-24 06:46:36 51°13.602 2°56.099 -999 4.997076 32.659114 3.668392
2006-04-24 06:46:41 51°13.602 2°56.099 -999 4.997076 32.659636 3.702101
2006-04-24 06:46:46 51°13.602 2°56.099 -999 4.996972 32.658874 3.702101
2006-04-24 06:46:51 51°13.602 2°56.099 -999 4.996972 32.658874 3.668392
2006-04-24 06:46:56 51°13.602 2°56.099 -999 4.996972 32.659396 3.702101
2006-04-24 06:47:01 51°13.602 2°56.099 -999 4.996868 32.659156 3.668392
2006-04-24 06:47:06 51°13.602 2°56.099 -999 4.996868 32.659156 3.668392
2006-04-24 06:47:11 51°13.602 2°56.098 -999 4.996868 32.659156 3.702101
2006-04-24 06:47:16 51°13.602 2°56.098 -999 4.996868 32.659677 3.668392
2006-04-24 06:47:21 51°13.602 2°56.098 -999 4.996868 32.659677 3.702101
2006-04-24 06:47:26 51°13.602 2°56.098 -999 4.996764 32.659437 3.702101
2006-04-24 06:47:31 51°13.602 2°56.099 -999 4.996764 32.659437 3.668392
2006-04-24 06:47:35 51°13.602 2°56.099 -999 4.996764 32.659437 3.668392
2006-04-24 06:47:41 51°13.602 2°56.098 -999 4.996764 32.659437 3.702101
2006-04-24 06:47:46 51°13.602 2°56.098 -999 4.99666 32.658675 3.668392
2006-04-24 06:47:51 51°13.602 2°56.098 -999 4.99666 32.658675 3.668392
2006-04-24 06:47:56 51°13.602 2°56.098 -999 4.99666 32.659197 3.702101
2006-04-24 06:48:01 51°13.602 2°56.098 -999 4.99666 32.659197 3.668392
2006-04-24 06:48:06 51°13.602 2°56.098 -999 4.99666 32.659197 3.668392
2006-04-24 06:48:11 51°13.602 2°56.099 -999 4.996557 32.658957 3.668392
2006-04-24 06:48:16 51°13.602 2°56.099 -999 4.996557 32.658957 3.702101
2006-04-24 06:48:21 51°13.602 2°56.099 -999 4.996453 32.658195 3.702101
2006-04-24 06:48:26 51°13.602 2°56.098 -999 4.996557 32.658957 3.702101
2006-04-24 06:48:31 51°13.602 2°56.099 -999 4.996453 32.658717 3.668392
2006-04-24 06:48:36 51°13.602 2°56.099 -999 4.996453 32.658717 3.668392
2006-04-24 06:48:41 51°13.602 2°56.099 -999 4.996453 32.658717 3.702101
2006-04-24 06:48:46 51°13.602 2°56.099 -999 4.996453 32.659238 3.702101
2006-04-24 06:48:51 51°13.602 2°56.099 -999 4.996349 32.658476 3.702101
2006-04-24 06:48:56 51°13.602 2°56.099 -999 4.996349 32.658476 3.702101
2006-04-24 06:49:01 51°13.602 2°56.099 -999 4.996349 32.658998 3.702101
2006-04-24 06:49:06 51°13.602 2°56.099 -999 4.996349 32.658998 3.702101
2006-04-24 06:49:11 51°13.602 2°56.099 -999 4.996245 32.658236 3.702101
2006-04-24 06:49:16 51°13.602 2°56.099 -999 4.996245 32.658758 3.668392
2006-04-24 06:49:21 51°13.602 2°56.099 -999 4.996245 32.658758 3.668392
2006-04-24 06:49:26 51°13.602 2°56.099 -999 4.996141 32.657996 3.702101
2006-04-24 06:49:31 51°13.602 2°56.099 -999 4.996141 32.657996 3.668392
2006-04-24 06:49:36 51°13.602 2°56.099 -999 4.996141 32.657996 3.668392
2006-04-24 06:49:41 51°13.602 2°56.099 -999 4.996141 32.658518 3.668392
2006-04-24 06:49:46 51°13.602 2°56.099 -999 4.996141 32.658518 3.702101
2006-04-24 06:49:51 51°13.602 2°56.099 -999 4.996037 32.657756 3.702101
2006-04-24 06:49:56 51°13.602 2°56.099 -999 4.996037 32.658278 3.668392
2006-04-24 06:50:01 51°13.602 2°56.099 -999 4.996037 32.658278 3.668392
2006-04-24 06:50:06 51°13.602 2°56.099 -999 4.996037 32.658278 3.668392
2006-04-24 06:50:11 51°13.602 2°56.099 -999 4.995933 32.658037 3.668392
2006-04-24 06:50:15 51°13.602 2°56.099 -999 4.995933 32.658037 3.668392
2006-04-24 06:50:21 51°13.602 2°56.099 -999 4.995933 32.658559 3.702101
2006-04-24 06:50:26 51°13.602 2°56.099 -999 4.995829 32.657797 3.702101
2006-04-24 06:50:31 51°13.602 2°56.099 -999 4.995829 32.658319 3.702101
2006-04-24 06:50:36 51°13.602 2°56.099 -999 4.995829 32.658319 3.702101
2006-04-24 06:50:41 51°13.601 2°56.099 -999 4.995829 32.658319 3.702101
2006-04-24 06:50:46 51°13.601 2°56.099 -999 4.99583 32.65884 3.702101
2006-04-24 06:50:51 51°13.601 2°56.099 -999 4.995726 32.658079 3.668392
2006-04-24 06:50:56 51°13.601 2°56.099 -999 4.995726 32.658079 3.702101
2006-04-24 06:51:01 51°13.601 2°56.099 -999 4.995726 32.658079 3.702101
2006-04-24 06:51:06 51°13.601 2°56.099 -999 4.995726 32.658079 3.702101
2006-04-24 06:51:11 51°13.601 2°56.099 -999 4.995726 32.6586 3.668392
2006-04-24 06:51:16 51°13.601 2°56.099 -999 4.995622 32.657839 3.668392
2006-04-24 06:51:21 51°13.601 2°56.099 -999 4.995622 32.657839 3.702101
2006-04-24 06:51:26 51°13.601 2°56.099 -999 4.995622 32.65836 3.668392
2006-04-24 06:51:31 51°13.601 2°56.099 -999 4.995518 32.657598 3.702101
2006-04-24 06:51:36 51°13.601 2°56.099 -999 4.995518 32.657598 3.702101
2006-04-24 06:51:41 51°13.601 2°56.099 -999 4.995518 32.65812 3.702101
2006-04-24 06:51:46 51°13.601 2°56.099 -999 4.995518 32.65812 3.668392
2006-04-24 06:51:51 51°13.601 2°56.099 -999 4.995414 32.657358 3.668392
2006-04-24 06:51:56 51°13.601 2°56.099 -999 4.995414 32.65788 3.702101
2006-04-24 06:52:01 51°13.601 2°56.099 -999 4.995414 32.658401 3.668392
2006-04-24 06:52:06 51°13.601 2°56.099 -999 4.995414 32.658401 3.668392
2006-04-24 06:52:11 51°13.601 2°56.099 -999 4.995414 32.658401 3.668392
2006-04-24 06:52:15 51°13.601 2°56.099 -999 4.99531 32.65764 3.668392
2006-04-24 06:52:21 51°13.601 2°56.099 -999 4.99531 32.65764 3.668392
2006-04-24 06:52:26 51°13.601 2°56.099 -999 4.99531 32.65764 3.702101
2006-04-24 06:52:31 51°13.601 2°56.099 -999 4.995206 32.6574 3.702101
2006-04-24 06:52:35 51°13.601 2°56.099 -999 4.995206 32.6574 3.702101
2006-04-24 06:52:41 51°13.601 2°56.099 -999 4.995206 32.6574 3.668392
2006-04-24 06:52:46 51°13.601 2°56.099 -999 4.995206 32.657921 3.668392
2006-04-24 06:52:51 51°13.601 2°56.099 -999 4.995206 32.657921 3.702101
2006-04-24 06:52:56 51°13.601 2°56.099 -999 4.995102 32.657681 3.668392
2006-04-24 06:53:01 51°13.601 2°56.1 -999 4.995102 32.657681 3.702101
2006-04-24 06:53:06 51°13.601 2°56.1 -999 4.995102 32.657681 3.702101
2006-04-24 06:53:11 51°13.601 2°56.1 -999 4.994998 32.656919 3.702101
2006-04-24 06:53:16 51°13.601 2°56.1 -999 4.994999 32.657441 3.702101
2006-04-24 06:53:21 51°13.601 2°56.1 -999 4.994999 32.657441 3.668392
2006-04-24 06:53:26 51°13.601 2°56.1 -999 4.994999 32.657963 3.668392
2006-04-24 06:53:31 51°13.601 2°56.1 -999 4.994895 32.657201 3.702101
2006-04-24 06:53:36 51°13.601 2°56.1 -999 4.994895 32.657201 3.702101
2006-04-24 06:53:41 51°13.601 2°56.1 -999 4.994895 32.657201 3.702101
2006-04-24 06:53:46 51°13.601 2°56.1 -999 4.994895 32.657722 3.702101
2006-04-24 06:53:51 51°13.601 2°56.1 -999 4.994791 32.656961 3.668392
2006-04-24 06:53:56 51°13.601 2°56.1 -999 4.994791 32.656961 3.702101
2006-04-24 06:54:01 51°13.601 2°56.1 -999 4.994791 32.657482 3.668392
2006-04-24 06:54:06 51°13.601 2°56.1 -999 4.994791 32.657482 3.668392
2006-04-24 06:54:11 51°13.602 2°56.1 -999 4.994791 32.657482 3.668392
2006-04-24 06:54:16 51°13.602 2°56.1 -999 4.994687 32.657242 3.668392
2006-04-24 06:54:21 51°13.602 2°56.1 -999 4.994687 32.657242 3.702101
2006-04-24 06:54:26 51°13.602 2°56.1 -999 4.994687 32.657764 3.668392
2006-04-24 06:54:31 51°13.602 2°56.1 -999 4.994687 32.657764 3.668392
2006-04-24 06:54:36 51°13.602 2°56.1 -999 4.994687 32.657764 3.668392
2006-04-24 06:54:41 51°13.601 2°56.1 -999 4.994583 32.657524 3.702101
2006-04-24 06:54:46 51°13.601 2°56.1 -999 4.994583 32.657524 3.668392
2006-04-24 06:54:51 51°13.601 2°56.1 -999 4.994479 32.656762 3.668392
2006-04-24 06:54:56 51°13.601 2°56.1 -999 4.994479 32.656762 3.668392
2006-04-24 06:55:01 51°13.601 2°56.1 -999 4.994479 32.657284 3.702101
2006-04-24 06:55:06 51°13.601 2°56.1 -999 4.994479 32.657284 3.702101
2006-04-24 06:55:11 51°13.601 2°56.1 -999 4.994479 32.657284 3.668392
2006-04-24 06:55:16 51°13.601 2°56.1 -999 4.994479 32.657805 3.702101
2006-04-24 06:55:21 51°13.601 2°56.1 -999 4.994375 32.657043 3.668392
2006-04-24 06:55:26 51°13.602 2°56.1 -999 4.994375 32.657043 3.702101
2006-04-24 06:55:31 51°13.602 2°56.1 -999 4.994375 32.657565 3.668392
2006-04-24 06:55:36 51°13.602 2°56.1 -999 4.994375 32.657565 3.668392
2006-04-24 06:55:41 51°13.602 2°56.1 -999 4.994271 32.656803 3.668392
2006-04-24 06:55:46 51°13.601 2°56.1 -999 4.994271 32.656803 3.702101
2006-04-24 06:55:51 51°13.601 2°56.099 -999 4.994168 32.656563 3.702101
2006-04-24 06:55:56 51°13.601 2°56.1 -999 4.994168 32.657085 3.702101
2006-04-24 06:56:01 51°13.601 2°56.1 -999 4.994168 32.656563 3.668392
2006-04-24 06:56:06 51°13.602 2°56.1 -999 4.994168 32.656563 3.668392
2006-04-24 06:56:11 51°13.602 2°56.1 -999 4.994168 32.657085 3.668392
2006-04-24 06:56:16 51°13.602 2°56.1 -999 4.994064 32.656323 3.702101
2006-04-24 06:56:21 51°13.602 2°56.1 -999 4.994064 32.656845 3.702101
2006-04-24 06:56:26 51°13.602 2°56.1 -999 4.994064 32.656845 3.668392
2006-04-24 06:56:31 51°13.602 2°56.099 -999 4.99396 32.656605 3.702101
2006-04-24 06:56:36 51°13.602 2°56.099 -999 4.99396 32.656605 3.702101
2006-04-24 06:56:41 51°13.602 2°56.099 -999 4.99396 32.656605 3.702101
2006-04-24 06:56:46 51°13.602 2°56.099 -999 4.99396 32.656605 3.668392
2006-04-24 06:56:51 51°13.602 2°56.099 -999 4.99396 32.657126 3.668392
2006-04-24 06:56:55 51°13.602 2°56.099 -999 4.993856 32.656364 3.668392
2006-04-24 06:57:01 51°13.602 2°56.099 -999 4.993856 32.656364 3.702101
2006-04-24 06:57:06 51°13.602 2°56.099 -999 4.993856 32.656364 3.702101
2006-04-24 06:57:11 51°13.602 2°56.099 -999 4.993856 32.656886 3.702101
2006-04-24 06:57:15 51°13.602 2°56.099 -999 4.993856 32.657408 3.702101
2006-04-24 06:57:21 51°13.602 2°56.099 -999 4.993752 32.656646 3.668392
2006-04-24 06:57:26 51°13.602 2°56.099 -999 4.993752 32.656646 3.668392
2006-04-24 06:57:31 51°13.602 2°56.099 -999 4.993648 32.655884 3.668392
2006-04-24 06:57:35 51°13.602 2°56.099 -999 4.993648 32.655884 3.668392
2006-04-24 06:57:41 51°13.602 2°56.099 -999 4.993648 32.656406 3.702101
2006-04-24 06:57:46 51°13.602 2°56.099 -999 4.993648 32.656406 3.668392
2006-04-24 06:57:51 51°13.602 2°56.099 -999 4.993648 32.656928 3.668392
2006-04-24 06:57:56 51°13.602 2°56.099 -999 4.993544 32.656166 3.702101
2006-04-24 06:58:01 51°13.602 2°56.099 -999 4.993544 32.656688 3.668392
2006-04-24 06:58:06 51°13.602 2°56.099 -999 4.993544 32.656688 3.668392
2006-04-24 06:58:11 51°13.602 2°56.099 -999 4.993544 32.656688 3.702101
2006-04-24 06:58:16 51°13.602 2°56.099 -999 4.99344 32.656447 3.668392
2006-04-24 06:58:21 51°13.602 2°56.099 -999 4.99344 32.656447 3.702101
2006-04-24 06:58:26 51°13.602 2°56.099 -999 4.99344 32.656447 3.702101
2006-04-24 06:58:31 51°13.602 2°56.099 -999 4.993337 32.655685 3.702101
2006-04-24 06:58:36 51°13.602 2°56.099 -999 4.993337 32.655685 3.702101
2006-04-24 06:58:41 51°13.602 2°56.099 -999 4.993337 32.656207 3.668392
2006-04-24 06:58:46 51°13.602 2°56.099 -999 4.993337 32.656207 3.668392
2006-04-24 06:58:51 51°13.602 2°56.099 -999 4.993337 32.656729 3.668392
2006-04-24 06:58:56 51°13.602 2°56.099 -999 4.993233 32.655967 3.702101
2006-04-24 06:59:01 51°13.602 2°56.099 -999 4.993233 32.655967 3.702101
2006-04-24 06:59:06 51°13.602 2°56.099 -999 4.993233 32.655967 3.702101
2006-04-24 06:59:11 51°13.602 2°56.099 -999 4.993233 32.655967 3.668392
2006-04-24 06:59:15 51°13.602 2°56.099 -999 4.993233 32.656489 3.668392
2006-04-24 06:59:21 51°13.602 2°56.099 -999 4.993129 32.656249 3.702101
2006-04-24 06:59:26 51°13.602 2°56.099 -999 4.993129 32.656249 3.702101
2006-04-24 06:59:31 51°13.602 2°56.099 -999 4.993129 32.656771 3.668392
2006-04-24 06:59:35 51°13.602 2°56.099 -999 4.993129 32.656771 3.668392
2006-04-24 06:59:41 51°13.602 2°56.099 -999 4.993129 32.656771 3.668392
2006-04-24 06:59:46 51°13.603 2°56.099 -999 4.993025 32.656009 3.668392
2006-04-24 06:59:51 51°13.603 2°56.098 -999 4.993025 32.65653 3.702101
2006-04-24 06:59:56 51°13.603 2°56.098 -999 4.992921 32.655768 3.702101
2006-04-24 07:00:01 51°13.603 2°56.098 -999 4.992921 32.65629 3.668392
2006-04-24 07:00:06 51°13.603 2°56.098 -999 4.992921 32.65629 3.668392
2006-04-24 07:00:11 51°13.603 2°56.098 -999 4.992921 32.65629 3.702101
2006-04-24 07:00:16 51°13.603 2°56.098 -999 4.992817 32.655006 3.702101
2006-04-24 07:00:21 51°13.603 2°56.098 -999 4.992817 32.65605 3.668392
2006-04-24 07:00:25 51°13.602 2°56.098 -999 4.992817 32.65605 3.702101
2006-04-24 07:00:31 51°13.602 2°56.098 -999 4.992817 32.656572 3.702101
2006-04-24 07:00:35 51°13.603 2°56.098 -999 4.992817 32.656572 3.702101
2006-04-24 07:00:41 51°13.603 2°56.098 -999 4.992713 32.65581 3.702101
2006-04-24 07:00:45 51°13.603 2°56.098 -999 4.992713 32.65581 3.668392
2006-04-24 07:00:50 51°13.603 2°56.098 -999 4.992713 32.656332 3.702101
2006-04-24 07:00:55 51°13.603 2°56.098 -999 4.992609 32.65557 3.668392
2006-04-24 07:01:01 51°13.603 2°56.098 -999 4.992713 32.656854 3.702101
2006-04-24 07:01:05 51°13.603 2°56.099 -999 4.992713 32.656854 3.702101
2006-04-24 07:01:10 51°13.603 2°56.099 -999 4.992609 32.656092 3.702101
2006-04-24 07:01:15 51°13.603 2°56.099 -999 4.992506 32.65533 3.702101
2006-04-24 07:01:21 51°13.603 2°56.099 -999 4.992506 32.655852 3.668392
2006-04-24 07:01:25 51°13.603 2°56.099 -999 4.992506 32.65533 3.702101
2006-04-24 07:01:31 51°13.603 2°56.099 -999 4.992506 32.655852 3.668392
2006-04-24 07:01:35 51°13.603 2°56.098 -999 4.992506 32.655852 3.668392
2006-04-24 07:01:41 51°13.603 2°56.098 -999 4.992402 32.655611 3.702101
2006-04-24 07:01:46 51°13.603 2°56.099 -999 4.992402 32.656133 3.702101
2006-04-24 07:01:51 51°13.603 2°56.098 -999 4.992402 32.655611 3.702101
2006-04-24 07:01:55 51°13.603 2°56.098 -999 4.992298 32.655371 3.702101
2006-04-24 07:02:01 51°13.603 2°56.099 -999 4.992298 32.655371 3.702101
2006-04-24 07:02:06 51°13.603 2°56.099 -999 4.992298 32.655371 3.702101
2006-04-24 07:02:11 51°13.603 2°56.099 -999 4.992298 32.655893 3.668392
2006-04-24 07:02:15 51°13.603 2°56.098 -999 4.992194 32.655131 3.668392
2006-04-24 07:02:20 51°13.603 2°56.098 -999 4.992194 32.655653 3.668392
2006-04-24 07:02:25 51°13.603 2°56.098 -999 4.992194 32.655653 3.702101
2006-04-24 07:02:31 51°13.603 2°56.098 -999 4.992194 32.655653 3.668392
2006-04-24 07:02:35 51°13.603 2°56.098 -999 4.992194 32.655653 3.668392
2006-04-24 07:02:40 51°13.603 2°56.098 -999 4.99209 32.655413 3.668392
2006-04-24 07:02:45 51°13.603 2°56.098 -999 4.99209 32.655413 3.668392
2006-04-24 07:02:51 51°13.603 2°56.098 -999 4.99209 32.655413 3.668392
2006-04-24 07:02:55 51°13.603 2°56.098 -999 4.991986 32.655173 3.702101
2006-04-24 07:03:01 51°13.603 2°56.098 -999 4.991986 32.655695 3.702101
2006-04-24 07:03:05 51°13.603 2°56.098 -999 4.991986 32.655695 3.702101
2006-04-24 07:03:10 51°13.603 2°56.098 -999 4.991986 32.655695 3.702101
2006-04-24 07:03:15 51°13.603 2°56.098 -999 4.991986 32.655695 3.702101
2006-04-24 07:03:21 51°13.603 2°56.098 -999 4.991882 32.654933 3.668392
2006-04-24 07:03:25 51°13.603 2°56.098 -999 4.991882 32.655455 3.668392
2006-04-24 07:03:30 51°13.603 2°56.098 -999 4.991882 32.655455 3.702101
2006-04-24 07:03:35 51°13.603 2°56.098 -999 4.991882 32.655455 3.702101
2006-04-24 07:03:41 51°13.603 2°56.098 -999 4.991778 32.655214 3.702101
2006-04-24 07:03:45 51°13.603 2°56.098 -999 4.991778 32.655214 3.702101
2006-04-24 07:03:51 51°13.603 2°56.098 -999 4.991778 32.655736 3.702101
2006-04-24 07:03:55 51°13.603 2°56.098 -999 4.991778 32.655214 3.668392
2006-04-24 07:04:00 51°13.602 2°56.099 -999 4.991675 32.655496 3.702101
2006-04-24 07:04:06 51°13.602 2°56.098 -999 4.991675 32.655496 3.702101
2006-04-24 07:04:11 51°13.602 2°56.098 -999 4.991675 32.655496 3.668392
2006-04-24 07:04:15 51°13.602 2°56.098 -999 4.991571 32.654734 3.668392
2006-04-24 07:04:20 51°13.602 2°56.099 -999 4.991571 32.655256 3.702101
2006-04-24 07:04:26 51°13.602 2°56.099 -999 4.991571 32.655256 3.702101
2006-04-24 07:04:31 51°13.602 2°56.099 -999 4.991467 32.655016 3.702101
2006-04-24 07:04:35 51°13.602 2°56.099 -999 4.991467 32.655016 3.702101
2006-04-24 07:04:40 51°13.602 2°56.099 -999 4.991467 32.655016 3.668392
2006-04-24 07:04:46 51°13.602 2°56.099 -999 4.991467 32.655016 3.668392
2006-04-24 07:04:51 51°13.602 2°56.099 -999 4.991467 32.655016 3.702101
2006-04-24 07:04:55 51°13.602 2°56.099 -999 4.991363 32.654776 3.668392
2006-04-24 07:05:01 51°13.602 2°56.099 -999 4.991363 32.655298 3.668392
2006-04-24 07:05:05 51°13.602 2°56.099 -999 4.991363 32.655298 3.668392
2006-04-24 07:05:11 51°13.602 2°56.099 -999 4.991363 32.655298 3.702101
2006-04-24 07:05:15 51°13.602 2°56.099 -999 4.991259 32.654536 3.668392
2006-04-24 07:05:21 51°13.602 2°56.099 -999 4.991259 32.655058 3.668392
2006-04-24 07:05:25 51°13.602 2°56.099 -999 4.991259 32.655058 3.668392
2006-04-24 07:05:30 51°13.602 2°56.099 -999 4.991155 32.654818 3.702101
2006-04-24 07:05:35 51°13.602 2°56.099 -999 4.991155 32.654818 3.702101
2006-04-24 07:05:41 51°13.602 2°56.099 -999 4.991155 32.654818 3.668392
2006-04-24 07:05:45 51°13.602 2°56.099 -999 4.991155 32.654818 3.668392
2006-04-24 07:05:50 51°13.602 2°56.099 -999 4.991051 32.654577 3.668392
2006-04-24 07:05:55 51°13.602 2°56.099 -999 4.991051 32.655099 3.668392
2006-04-24 07:06:01 51°13.602 2°56.099 -999 4.991051 32.655099 3.668392
2006-04-24 07:06:06 51°13.602 2°56.099 -999 4.991051 32.655099 3.668392
2006-04-24 07:06:11 51°13.602 2°56.099 -999 4.991051 32.655099 3.668392
2006-04-24 07:06:15 51°13.602 2°56.099 -999 4.990947 32.654337 3.668392
2006-04-24 07:06:21 51°13.602 2°56.099 -999 4.990947 32.654859 3.668392
2006-04-24 07:06:26 51°13.602 2°56.099 -999 4.990947 32.654859 3.702101
2006-04-24 07:06:31 51°13.602 2°56.099 -999 4.990844 32.654619 3.702101
2006-04-24 07:06:35 51°13.602 2°56.099 -999 4.990844 32.654619 3.702101
2006-04-24 07:06:40 51°13.602 2°56.099 -999 4.990844 32.654619 3.702101
2006-04-24 07:06:45 51°13.602 2°56.099 -999 4.990844 32.655141 3.668392
2006-04-24 07:06:50 51°13.602 2°56.099 -999 4.990844 32.655141 3.702101
2006-04-24 07:06:55 51°13.602 2°56.099 -999 4.99074 32.654901 3.668392
2006-04-24 07:07:00 51°13.602 2°56.099 -999 4.99074 32.654901 3.702101
2006-04-24 07:07:05 51°13.602 2°56.099 -999 4.99074 32.654901 3.702101
2006-04-24 07:07:10 51°13.602 2°56.099 -999 4.990636 32.654139 3.668392
2006-04-24 07:07:15 51°13.602 2°56.099 -999 4.990636 32.654661 3.702101
2006-04-24 07:07:20 51°13.602 2°56.099 -999 4.990636 32.654661 3.702101
2006-04-24 07:07:25 51°13.602 2°56.099 -999 4.990636 32.655183 3.702101
2006-04-24 07:07:30 51°13.602 2°56.099 -999 4.990532 32.654421 3.702101
2006-04-24 07:07:35 51°13.602 2°56.099 -999 4.990532 32.654421 3.702101
2006-04-24 07:07:40 51°13.602 2°56.099 -999 4.990532 32.654943 3.702101
2006-04-24 07:07:45 51°13.602 2°56.099 -999 4.990532 32.654943 3.668392
2006-04-24 07:07:50 51°13.602 2°56.099 -999 4.990428 32.654181 3.702101
2006-04-24 07:07:55 51°13.602 2°56.099 -999 4.990428 32.654703 3.702101
2006-04-24 07:08:00 51°13.601 2°56.099 -999 4.990428 32.655225 3.668392
2006-04-24 07:08:05 51°13.601 2°56.099 -999 4.990428 32.655225 3.668392
2006-04-24 07:08:10 51°13.602 2°56.099 -999 4.990428 32.655225 3.668392
2006-04-24 07:08:15 51°13.602 2°56.099 -999 4.990324 32.654463 3.702101
2006-04-24 07:08:20 51°13.602 2°56.099 -999 4.990324 32.654463 3.702101
2006-04-24 07:08:25 51°13.602 2°56.099 -999 4.990324 32.654985 3.702101
2006-04-24 07:08:30 51°13.602 2°56.099 -999 4.99022 32.654745 3.702101
2006-04-24 07:08:35 51°13.602 2°56.099 -999 4.99022 32.654745 3.702101
2006-04-24 07:08:41 51°13.602 2°56.099 -999 4.99022 32.654745 3.668392
2006-04-24 07:08:46 51°13.602 2°56.099 -999 4.990117 32.654504 3.668392
2006-04-24 07:08:51 51°13.602 2°56.099 -999 4.990117 32.654504 3.702101
2006-04-24 07:08:56 51°13.602 2°56.099 -999 4.990117 32.655027 3.702101
2006-04-24 07:09:01 51°13.602 2°56.099 -999 4.990013 32.654264 3.702101
2006-04-24 07:09:06 51°13.602 2°56.099 -999 4.990013 32.654264 3.702101
2006-04-24 07:09:11 51°13.602 2°56.099 -999 4.990013 32.654786 3.668392
2006-04-24 07:09:16 51°13.602 2°56.099 -999 4.990013 32.654786 3.702101
2006-04-24 07:09:21 51°13.602 2°56.099 -999 4.990013 32.655309 3.702101
2006-04-24 07:09:26 51°13.602 2°56.099 -999 4.989909 32.654546 3.668392
2006-04-24 07:09:31 51°13.602 2°56.099 -999 4.989909 32.655068 3.702101
2006-04-24 07:09:36 51°13.602 2°56.099 -999 4.989909 32.655068 3.702101
2006-04-24 07:09:41 51°13.602 2°56.099 -999 4.989805 32.654306 3.702101
2006-04-24 07:09:46 51°13.602 2°56.099 -999 4.989805 32.654828 3.668392
2006-04-24 07:09:51 51°13.602 2°56.099 -999 4.989805 32.654828 3.668392
2006-04-24 07:09:56 51°13.602 2°56.099 -999 4.989805 32.655351 3.702101
2006-04-24 07:10:01 51°13.601 2°56.099 -999 4.989805 32.655351 3.668392
2006-04-24 07:10:06 51°13.602 2°56.099 -999 4.989805 32.655351 3.668392
2006-04-24 07:10:11 51°13.601 2°56.099 -999 4.989701 32.654588 3.668392
2006-04-24 07:10:16 51°13.601 2°56.099 -999 4.989597 32.654348 3.702101
2006-04-24 07:10:21 51°13.601 2°56.099 -999 4.989597 32.654348 3.702101
2006-04-24 07:10:26 51°13.601 2°56.099 -999 4.989597 32.65487 3.702101
2006-04-24 07:10:31 51°13.601 2°56.099 -999 4.989493 32.654108 3.702101
2006-04-24 07:10:36 51°13.601 2°56.099 -999 4.989493 32.654108 3.702101
2006-04-24 07:10:41 51°13.601 2°56.099 -999 4.989493 32.65463 3.668392
2006-04-24 07:10:46 51°13.601 2°56.099 -999 4.989493 32.655152 3.668392
2006-04-24 07:10:51 51°13.601 2°56.099 -999 4.989389 32.65439 3.668392
2006-04-24 07:10:56 51°13.601 2°56.099 -999 4.989389 32.654912 3.668392
2006-04-24 07:11:01 51°13.601 2°56.099 -999 4.989389 32.654912 3.702101
2006-04-24 07:11:06 51°13.601 2°56.099 -999 4.989389 32.654912 3.702101
2006-04-24 07:11:11 51°13.601 2°56.099 -999 4.989286 32.654672 3.702101
2006-04-24 07:11:16 51°13.601 2°56.099 -999 4.989286 32.654672 3.702101
2006-04-24 07:11:21 51°13.601 2°56.099 -999 4.989182 32.654432 3.668392
2006-04-24 07:11:26 51°13.601 2°56.099 -999 4.989182 32.654432 3.702101
2006-04-24 07:11:31 51°13.601 2°56.099 -999 4.989182 32.654432 3.668392
2006-04-24 07:11:36 51°13.602 2°56.099 -999 4.989182 32.654432 3.668392
2006-04-24 07:11:41 51°13.603 2°56.1 -999 4.989078 32.654192 3.668392
2006-04-24 07:11:46 51°13.603 2°56.1 -999 4.989078 32.654192 3.702101
2006-04-24 07:11:51 51°13.602 2°56.099 -999 4.989078 32.654714 3.702101
2006-04-24 07:11:56 51°13.601 2°56.099 -999 4.988974 32.653952 3.668392
2006-04-24 07:12:01 51°13.601 2°56.099 -999 4.988974 32.654474 3.668392
2006-04-24 07:12:06 51°13.601 2°56.099 -999 4.988974 32.654474 3.668392
2006-04-24 07:12:11 51°13.601 2°56.099 -999 4.988974 32.654474 3.702101
2006-04-24 07:12:16 51°13.601 2°56.099 -999 4.98887 32.654234 3.702101
2006-04-24 07:12:21 51°13.601 2°56.099 -999 4.98887 32.654756 3.702101
2006-04-24 07:12:26 51°13.601 2°56.099 -999 4.988766 32.653994 3.702101
2006-04-24 07:12:31 51°13.602 2°56.099 -999 4.988766 32.654516 3.668392
2006-04-24 07:12:36 51°13.602 2°56.099 -999 4.988766 32.654516 3.668392
2006-04-24 07:12:41 51°13.602 2°56.099 -999 4.988766 32.654516 3.668392
2006-04-24 07:12:46 51°13.601 2°56.098 -999 4.988662 32.653753 3.702101
2006-04-24 07:12:51 51°13.6 2°56.098 -999 4.988662 32.654276 3.702101
2006-04-24 07:12:56 51°13.599 2°56.098 -999 4.988662 32.654798 3.702101
2006-04-24 07:13:01 51°13.598 2°56.097 -999 4.988558 32.654036 3.668392
2006-04-24 07:13:06 51°13.596 2°56.097 -999 4.988558 32.654036 3.668392
2006-04-24 07:13:11 51°13.598 2°56.097 -999 4.988558 32.654558 3.668392
2006-04-24 07:13:16 51°13.601 2°56.099 -999 4.988558 32.654558 3.668392
2006-04-24 07:13:21 51°13.603 2°56.1 -999 4.988455 32.654318 3.702101
2006-04-24 07:13:26 51°13.604 2°56.1 -999 4.988455 32.65484 3.668392
2006-04-24 07:13:31 51°13.605 2°56.1 -999 4.988351 32.654078 3.702101
2006-04-24 07:13:36 51°13.606 2°56.101 -999 4.988351 32.654078 3.702101
2006-04-24 07:13:41 51°13.606 2°56.101 -999 4.988351 32.654078 3.668392
2006-04-24 07:13:46 51°13.605 2°56.101 -999 4.988351 32.6546 3.668392
2006-04-24 07:13:51 51°13.605 2°56.101 -999 4.988351 32.6546 3.668392
2006-04-24 07:13:56 51°13.605 2°56.101 -999 4.988351 32.655123 3.702101
2006-04-24 07:14:01 51°13.604 2°56.101 -999 4.988143 32.653597 3.668392
2006-04-24 07:14:06 51°13.601 2°56.1 -999 4.988143 32.653597 3.668392
2006-04-24 07:14:11 51°13.6 2°56.099 -999 4.988143 32.65412 3.702101
2006-04-24 07:14:16 51°13.6 2°56.099 -999 4.988143 32.65412 3.668392
2006-04-24 07:14:21 51°13.6 2°56.099 -999 4.988143 32.654642 3.702101
2006-04-24 07:14:26 51°13.6 2°56.099 -999 4.988143 32.654642 3.668392
2006-04-24 07:14:31 51°13.6 2°56.099 -999 4.988039 32.65388 3.668392
2006-04-24 07:14:36 51°13.6 2°56.099 -999 4.988039 32.65388 3.668392
2006-04-24 07:14:41 51°13.6 2°56.099 -999 4.988039 32.654402 3.702101
2006-04-24 07:14:46 51°13.6 2°56.099 -999 4.987935 32.654162 3.668392
2006-04-24 07:14:51 51°13.601 2°56.1 -999 4.987831 32.653399 3.668392
2006-04-24 07:14:56 51°13.601 2°56.1 -999 4.987831 32.653399 3.702101
2006-04-24 07:15:01 51°13.602 2°56.1 -999 4.987831 32.653922 3.668392
2006-04-24 07:15:06 51°13.603 2°56.1 -999 4.987831 32.653922 3.668392
2006-04-24 07:15:11 51°13.603 2°56.101 -999 4.987831 32.653922 3.668392
2006-04-24 07:15:16 51°13.604 2°56.101 -999 4.987728 32.653682 3.702101
2006-04-24 07:15:21 51°13.604 2°56.101 -999 4.987728 32.653682 3.668392
2006-04-24 07:15:26 51°13.604 2°56.101 -999 4.987728 32.654204 3.668392
2006-04-24 07:15:31 51°13.604 2°56.101 -999 4.987624 32.653441 3.668392
2006-04-24 07:15:36 51°13.604 2°56.101 -999 4.987624 32.653441 3.668392
2006-04-24 07:15:41 51°13.604 2°56.101 -999 4.987624 32.653441 3.668392
2006-04-24 07:15:46 51°13.604 2°56.101 -999 4.987624 32.653964 3.668392
2006-04-24 07:15:51 51°13.603 2°56.1 -999 4.98752 32.653201 3.668392
2006-04-24 07:15:56 51°13.603 2°56.1 -999 4.98752 32.653724 3.702101
2006-04-24 07:16:01 51°13.603 2°56.1 -999 4.98752 32.654246 3.702101
2006-04-24 07:16:06 51°13.603 2°56.1 -999 4.98752 32.654246 3.702101
2006-04-24 07:16:11 51°13.603 2°56.1 -999 4.987416 32.653484 3.702101
2006-04-24 07:16:16 51°13.603 2°56.1 -999 4.987416 32.653484 3.702101
2006-04-24 07:16:21 51°13.603 2°56.1 -999 4.987312 32.653243 3.668392
2006-04-24 07:16:26 51°13.603 2°56.1 -999 4.987312 32.653243 3.668392
2006-04-24 07:16:31 51°13.603 2°56.1 -999 4.987208 32.653003 3.668392
2006-04-24 07:16:36 51°13.602 2°56.1 -999 4.987208 32.653003 3.668392
2006-04-24 07:16:41 51°13.602 2°56.1 -999 4.987208 32.653526 3.668392
2006-04-24 07:16:46 51°13.601 2°56.1 -999 4.987208 32.653526 3.702101
2006-04-24 07:16:51 51°13.601 2°56.1 -999 4.987104 32.653286 3.702101
2006-04-24 07:16:56 51°13.601 2°56.1 -999 4.987104 32.653286 3.668392
2006-04-24 07:17:01 51°13.601 2°56.1 -999 4.987104 32.653286 3.702101
2006-04-24 07:17:06 51°13.601 2°56.1 -999 4.987104 32.653286 3.702101
2006-04-24 07:17:11 51°13.601 2°56.1 -999 4.987 32.653045 3.668392
2006-04-24 07:17:16 51°13.601 2°56.1 -999 4.987 32.653045 3.668392
2006-04-24 07:17:21 51°13.601 2°56.1 -999 4.986897 32.652805 3.702101
2006-04-24 07:17:26 51°13.601 2°56.1 -999 4.986897 32.653328 3.702101
2006-04-24 07:17:31 51°13.601 2°56.1 -999 4.986897 32.653328 3.702101
2006-04-24 07:17:36 51°13.601 2°56.1 -999 4.986897 32.653328 3.702101
2006-04-24 07:17:41 51°13.601 2°56.1 -999 4.986897 32.653328 3.668392
2006-04-24 07:17:46 51°13.602 2°56.1 -999 4.986793 32.653088 3.668392
2006-04-24 07:17:51 51°13.602 2°56.1 -999 4.986793 32.653088 3.668392
2006-04-24 07:17:56 51°13.602 2°56.1 -999 4.986689 32.652847 3.668392
2006-04-24 07:18:01 51°13.602 2°56.1 -999 4.986689 32.652847 3.702101
2006-04-24 07:18:06 51°13.602 2°56.1 -999 4.986689 32.652847 3.702101
2006-04-24 07:18:11 51°13.602 2°56.1 -999 4.986585 32.652607 3.702101
2006-04-24 07:18:16 51°13.602 2°56.1 -999 4.986585 32.652607 3.668392
2006-04-24 07:18:21 51°13.602 2°56.1 -999 4.986585 32.652607 3.702101
2006-04-24 07:18:26 51°13.602 2°56.1 -999 4.986585 32.65313 3.668392
2006-04-24 07:18:31 51°13.602 2°56.1 -999 4.986481 32.652367 3.668392
2006-04-24 07:18:36 51°13.602 2°56.1 -999 4.986481 32.652367 3.668392
2006-04-24 07:18:41 51°13.602 2°56.1 -999 4.986481 32.65289 3.668392
2006-04-24 07:18:46 51°13.602 2°56.1 -999 4.986481 32.65289 3.668392
2006-04-24 07:18:51 51°13.602 2°56.1 -999 4.986377 32.652649 3.702101
2006-04-24 07:18:56 51°13.602 2°56.1 -999 4.986377 32.652649 3.668392
2006-04-24 07:19:01 51°13.602 2°56.1 -999 4.986273 32.652409 3.702101
2006-04-24 07:19:06 51°13.602 2°56.1 -999 4.986273 32.652409 3.702101
2006-04-24 07:19:11 51°13.602 2°56.099 -999 4.986273 32.652409 3.668392
2006-04-24 07:19:16 51°13.602 2°56.099 -999 4.986273 32.652932 3.702101
2006-04-24 07:19:21 51°13.602 2°56.099 -999 4.986273 32.652932 3.702101
2006-04-24 07:19:26 51°13.602 2°56.099 -999 4.986169 32.652692 3.702101
2006-04-24 07:19:31 51°13.602 2°56.099 -999 4.986169 32.652692 3.702101
2006-04-24 07:19:36 51°13.602 2°56.099 -999 4.986169 32.652692 3.702101
2006-04-24 07:19:41 51°13.602 2°56.099 -999 4.986066 32.652452 3.668392
2006-04-24 07:19:46 51°13.602 2°56.099 -999 4.986066 32.652452 3.702101
2006-04-24 07:19:51 51°13.602 2°56.099 -999 4.986066 32.652452 3.668392
2006-04-24 07:19:56 51°13.602 2°56.099 -999 4.986066 32.652974 3.668392
2006-04-24 07:20:01 51°13.602 2°56.099 -999 4.985962 32.652211 3.668392
2006-04-24 07:20:06 51°13.602 2°56.099 -999 4.985962 32.652211 3.668392
2006-04-24 07:20:11 51°13.602 2°56.099 -999 4.985962 32.652734 3.668392
2006-04-24 07:20:16 51°13.602 2°56.099 -999 4.985858 32.651971 3.702101
2006-04-24 07:20:21 51°13.602 2°56.099 -999 4.985858 32.652494 3.668392
2006-04-24 07:20:26 51°13.602 2°56.099 -999 4.985858 32.652494 3.702101
2006-04-24 07:20:31 51°13.602 2°56.099 -999 4.985754 32.652254 3.702101
2006-04-24 07:20:36 51°13.602 2°56.099 -999 4.985754 32.652254 3.702101
2006-04-24 07:20:41 51°13.602 2°56.099 -999 4.985754 32.652254 3.702101
2006-04-24 07:20:46 51°13.602 2°56.099 -999 4.98565 32.652013 3.702101
2006-04-24 07:20:51 51°13.601 2°56.099 -999 4.98565 32.652013 3.668392
2006-04-24 07:20:56 51°13.601 2°56.099 -999 4.98565 32.652536 3.702101
2006-04-24 07:21:01 51°13.601 2°56.099 -999 4.985546 32.651773 3.668392
2006-04-24 07:21:06 51°13.601 2°56.099 -999 4.985546 32.651773 3.668392
2006-04-24 07:21:11 51°13.601 2°56.099 -999 4.985546 32.651773 3.702101
2006-04-24 07:21:16 51°13.602 2°56.099 -999 4.985442 32.651533 3.668392
2006-04-24 07:21:21 51°13.602 2°56.099 -999 4.985442 32.651533 3.702101
2006-04-24 07:21:26 51°13.602 2°56.099 -999 4.985442 32.652056 3.702101
2006-04-24 07:21:31 51°13.602 2°56.099 -999 4.985338 32.651816 3.668392
2006-04-24 07:21:36 51°13.602 2°56.099 -999 4.985338 32.651816 3.668392
2006-04-24 07:21:41 51°13.602 2°56.099 -999 4.985338 32.651816 3.702101
2006-04-24 07:21:46 51°13.602 2°56.099 -999 4.985338 32.652338 3.668392
2006-04-24 07:21:51 51°13.602 2°56.099 -999 4.985235 32.652098 3.702101
2006-04-24 07:21:56 51°13.602 2°56.099 -999 4.985235 32.652098 3.702101
2006-04-24 07:22:01 51°13.602 2°56.099 -999 4.985131 32.651858 3.668392
2006-04-24 07:22:06 51°13.602 2°56.099 -999 4.985131 32.651858 3.668392
2006-04-24 07:22:11 51°13.602 2°56.099 -999 4.985131 32.651858 3.668392
2006-04-24 07:22:16 51°13.602 2°56.099 -999 4.985131 32.652381 3.702101
2006-04-24 07:22:21 51°13.602 2°56.099 -999 4.985027 32.651618 3.702101
2006-04-24 07:22:26 51°13.602 2°56.099 -999 4.985027 32.652141 3.702101
2006-04-24 07:22:31 51°13.602 2°56.099 -999 4.985027 32.652141 3.668392
2006-04-24 07:22:36 51°13.602 2°56.099 -999 4.985027 32.652141 3.668392
2006-04-24 07:22:41 51°13.602 2°56.099 -999 4.984923 32.6519 3.702101
2006-04-24 07:22:46 51°13.602 2°56.099 -999 4.984923 32.6519 3.668392
2006-04-24 07:22:51 51°13.602 2°56.099 -999 4.984923 32.6519 3.668392
2006-04-24 07:22:56 51°13.602 2°56.099 -999 4.984923 32.652423 3.668392
2006-04-24 07:23:01 51°13.602 2°56.099 -999 4.984819 32.65166 3.668392
2006-04-24 07:23:06 51°13.602 2°56.099 -999 4.984819 32.65166 3.668392
2006-04-24 07:23:11 51°13.602 2°56.099 -999 4.984819 32.65166 3.668392
2006-04-24 07:23:16 51°13.602 2°56.099 -999 4.984715 32.65142 3.668392
2006-04-24 07:23:21 51°13.602 2°56.099 -999 4.984715 32.651943 3.702101
2006-04-24 07:23:26 51°13.602 2°56.099 -999 4.984611 32.65118 3.668392
2006-04-24 07:23:31 51°13.602 2°56.099 -999 4.984611 32.651703 3.702101
2006-04-24 07:23:36 51°13.602 2°56.099 -999 4.984611 32.651703 3.702101
2006-04-24 07:23:41 51°13.602 2°56.099 -999 4.984611 32.651703 3.668392
2006-04-24 07:23:46 51°13.602 2°56.099 -999 4.984508 32.65094 3.702101
2006-04-24 07:23:51 51°13.602 2°56.098 -999 4.984508 32.651985 3.668392
2006-04-24 07:23:56 51°13.602 2°56.099 -999 4.984508 32.651985 3.702101
2006-04-24 07:24:01 51°13.602 2°56.099 -999 4.984404 32.651222 3.668392
2006-04-24 07:24:06 51°13.602 2°56.099 -999 4.984404 32.651222 3.668392
2006-04-24 07:24:11 51°13.602 2°56.099 -999 4.984404 32.651745 3.702101
2006-04-24 07:24:16 51°13.602 2°56.099 -999 4.984404 32.652268 3.668392
2006-04-24 07:24:21 51°13.602 2°56.099 -999 4.9843 32.651505 3.668392
2006-04-24 07:24:26 51°13.602 2°56.099 -999 4.9843 32.652028 3.668392
2006-04-24 07:24:31 51°13.602 2°56.099 -999 4.9843 32.652028 3.668392
2006-04-24 07:24:36 51°13.602 2°56.098 -999 4.9843 32.652028 3.668392
2006-04-24 07:24:41 51°13.602 2°56.099 -999 4.984196 32.651788 3.668392
2006-04-24 07:24:46 51°13.602 2°56.098 -999 4.984196 32.651788 3.702101
2006-04-24 07:24:51 51°13.602 2°56.099 -999 4.984092 32.651548 3.668392
2006-04-24 07:24:56 51°13.602 2°56.099 -999 4.984196 32.652311 3.668392
2006-04-24 07:25:01 51°13.602 2°56.099 -999 4.984092 32.651548 3.668392
2006-04-24 07:25:06 51°13.602 2°56.099 -999 4.984092 32.651548 3.668392
2006-04-24 07:25:11 51°13.602 2°56.099 -999 4.984092 32.652071 3.668392
2006-04-24 07:25:16 51°13.602 2°56.099 -999 4.983988 32.651307 3.702101
2006-04-24 07:25:21 51°13.602 2°56.099 -999 4.983988 32.65183 3.668392
2006-04-24 07:25:26 51°13.602 2°56.099 -999 4.983884 32.651067 3.702101
2006-04-24 07:25:31 51°13.602 2°56.099 -999 4.983884 32.65159 3.668392
2006-04-24 07:25:36 51°13.602 2°56.099 -999 4.983884 32.65159 3.668392
2006-04-24 07:25:41 51°13.602 2°56.099 -999 4.983884 32.652113 3.668392
2006-04-24 07:25:46 51°13.602 2°56.099 -999 4.98378 32.65135 3.668392
2006-04-24 07:25:51 51°13.602 2°56.099 -999 4.98378 32.651873 3.668392
2006-04-24 07:25:56 51°13.602 2°56.099 -999 4.98378 32.651873 3.668392
2006-04-24 07:26:01 51°13.602 2°56.099 -999 4.983677 32.651633 3.668392
2006-04-24 07:26:06 51°13.602 2°56.099 -999 4.983677 32.651633 3.668392
2006-04-24 07:26:11 51°13.602 2°56.099 -999 4.983677 32.651633 3.702101
2006-04-24 07:26:16 51°13.602 2°56.099 -999 4.983573 32.651392 3.668392
2006-04-24 07:26:21 51°13.602 2°56.099 -999 4.983573 32.651392 3.668392
2006-04-24 07:26:26 51°13.602 2°56.099 -999 4.983469 32.651152 3.668392
2006-04-24 07:26:31 51°13.602 2°56.099 -999 4.983469 32.651675 3.668392
2006-04-24 07:26:36 51°13.602 2°56.099 -999 4.983469 32.651675 3.668392
2006-04-24 07:26:41 51°13.602 2°56.099 -999 4.983469 32.651675 3.668392
2006-04-24 07:26:46 51°13.602 2°56.099 -999 4.983365 32.650912 3.702101
2006-04-24 07:26:51 51°13.602 2°56.099 -999 4.983365 32.651435 3.668392
2006-04-24 07:26:56 51°13.602 2°56.099 -999 4.983365 32.651958 3.668392
2006-04-24 07:27:01 51°13.602 2°56.099 -999 4.983261 32.651195 3.702101
2006-04-24 07:27:06 51°13.602 2°56.099 -999 4.983261 32.651195 3.702101
2006-04-24 07:27:11 51°13.602 2°56.099 -999 4.983261 32.651718 3.702101
2006-04-24 07:27:16 51°13.602 2°56.099 -999 4.983261 32.652241 3.702101
2006-04-24 07:27:21 51°13.602 2°56.099 -999 4.983157 32.651478 3.668392
2006-04-24 07:27:26 51°13.602 2°56.099 -999 4.983157 32.651478 3.668392
2006-04-24 07:27:31 51°13.602 2°56.099 -999 4.983053 32.651761 3.702101
2006-04-24 07:27:36 51°13.602 2°56.099 -999 4.983053 32.651761 3.702101
2006-04-24 07:27:41 51°13.602 2°56.099 -999 4.983053 32.651761 3.702101
2006-04-24 07:27:46 51°13.602 2°56.099 -999 4.983053 32.652284 3.668392
2006-04-24 07:27:51 51°13.602 2°56.099 -999 4.982949 32.65152 3.668392
2006-04-24 07:27:56 51°13.602 2°56.099 -999 4.982949 32.65152 3.668392
2006-04-24 07:28:01 51°13.602 2°56.099 -999 4.982846 32.65128 3.668392
2006-04-24 07:28:06 51°13.602 2°56.099 -999 4.982846 32.65128 3.668392
2006-04-24 07:28:11 51°13.602 2°56.099 -999 4.982846 32.65128 3.668392
2006-04-24 07:28:16 51°13.602 2°56.099 -999 4.982846 32.651803 3.668392
2006-04-24 07:28:21 51°13.602 2°56.099 -999 4.982742 32.651563 3.668392
2006-04-24 07:28:26 51°13.602 2°56.099 -999 4.982638 32.6508 3.702101
2006-04-24 07:28:31 51°13.602 2°56.099 -999 4.982638 32.6508 3.668392
2006-04-24 07:28:36 51°13.602 2°56.099 -999 4.982638 32.6508 3.668392
2006-04-24 07:28:41 51°13.602 2°56.099 -999 4.982638 32.651846 3.668392
2006-04-24 07:28:46 51°13.602 2°56.1 -999 4.982638 32.651846 3.702101
2006-04-24 07:28:51 51°13.602 2°56.1 -999 4.982534 32.651083 3.668392
2006-04-24 07:28:56 51°13.602 2°56.1 -999 4.982534 32.651606 3.702101
2006-04-24 07:29:01 51°13.602 2°56.1 -999 4.98243 32.650843 3.668392
2006-04-24 07:29:06 51°13.602 2°56.099 -999 4.98243 32.650843 3.668392
2006-04-24 07:29:11 51°13.602 2°56.099 -999 4.98243 32.651366 3.668392
2006-04-24 07:29:16 51°13.602 2°56.099 -999 4.98243 32.651889 3.668392
2006-04-24 07:29:21 51°13.602 2°56.099 -999 4.982326 32.651126 3.668392
2006-04-24 07:29:26 51°13.602 2°56.099 -999 4.982222 32.650885 3.668392
2006-04-24 07:29:31 51°13.602 2°56.099 -999 4.982222 32.650885 3.668392
2006-04-24 07:29:36 51°13.602 2°56.099 -999 4.982222 32.650885 3.668392
2006-04-24 07:29:41 51°13.602 2°56.099 -999 4.982119 32.650645 3.668392
2006-04-24 07:29:46 51°13.602 2°56.099 -999 4.982119 32.651168 3.702101
2006-04-24 07:29:51 51°13.602 2°56.099 -999 4.982119 32.651168 3.668392
2006-04-24 07:29:56 51°13.602 2°56.099 -999 4.982119 32.651168 3.668392
2006-04-24 07:30:01 51°13.602 2°56.099 -999 4.982015 32.650928 3.668392
2006-04-24 07:30:06 51°13.602 2°56.099 -999 4.982015 32.650928 3.668392
2006-04-24 07:30:11 51°13.601 2°56.099 -999 4.981911 32.650165 3.668392
2006-04-24 07:30:16 51°13.601 2°56.099 -999 4.981911 32.650688 3.668392
2006-04-24 07:30:21 51°13.601 2°56.099 -999 4.981807 32.649924 3.668392
2006-04-24 07:30:26 51°13.601 2°56.099 -999 4.981807 32.650448 3.668392
2006-04-24 07:30:31 51°13.601 2°56.099 -999 4.981807 32.650448 3.668392
2006-04-24 07:30:36 51°13.601 2°56.099 -999 4.981807 32.650448 3.668392
2006-04-24 07:30:41 51°13.601 2°56.099 -999 4.981703 32.650207 3.668392
2006-04-24 07:30:46 51°13.601 2°56.099 -999 4.981703 32.650731 3.668392
2006-04-24 07:30:51 51°13.601 2°56.099 -999 4.981599 32.65049 3.668392
2006-04-24 07:30:56 51°13.601 2°56.099 -999 4.981599 32.65049 3.668392
2006-04-24 07:31:01 51°13.601 2°56.099 -999 4.981599 32.65049 3.702101
2006-04-24 07:31:06 51°13.601 2°56.099 -999 4.981599 32.65049 3.702101
2006-04-24 07:31:11 51°13.601 2°56.099 -999 4.981495 32.65025 3.668392
2006-04-24 07:31:16 51°13.601 2°56.099 -999 4.981495 32.65025 3.702101
2006-04-24 07:31:21 51°13.601 2°56.099 -999 4.981495 32.650774 3.668392
2006-04-24 07:31:26 51°13.601 2°56.099 -999 4.981391 32.650533 3.668392
2006-04-24 07:31:31 51°13.601 2°56.099 -999 4.981391 32.650533 3.668392
2006-04-24 07:31:36 51°13.601 2°56.099 -999 4.981391 32.650533 3.668392
2006-04-24 07:31:41 51°13.601 2°56.099 -999 4.981288 32.650293 3.668392
2006-04-24 07:31:46 51°13.601 2°56.099 -999 4.981288 32.650816 3.668392
2006-04-24 07:31:51 51°13.601 2°56.098 -999 4.981288 32.65134 3.668392
2006-04-24 07:31:56 51°13.601 2°56.098 -999 4.981184 32.6511 3.702101
2006-04-24 07:32:01 51°13.601 2°56.099 -999 4.981184 32.650576 3.668392
2006-04-24 07:32:06 51°13.601 2°56.099 -999 4.981184 32.650576 3.668392
2006-04-24 07:32:11 51°13.601 2°56.098 -999 4.98108 32.650336 3.668392
2006-04-24 07:32:16 51°13.601 2°56.098 -999 4.98108 32.650859 3.668392
2006-04-24 07:32:21 51°13.601 2°56.098 -999 4.980976 32.650619 3.668392
2006-04-24 07:32:26 51°13.601 2°56.098 -999 4.980976 32.650096 3.668392
2006-04-24 07:32:31 51°13.602 2°56.098 -999 4.980872 32.649855 3.668392
2006-04-24 07:32:36 51°13.602 2°56.098 -999 4.980872 32.649855 3.668392
2006-04-24 07:32:41 51°13.602 2°56.098 -999 4.980872 32.650379 3.668392
2006-04-24 07:32:46 51°13.602 2°56.098 -999 4.980768 32.649615 3.668392
2006-04-24 07:32:51 51°13.602 2°56.098 -999 4.980768 32.650139 3.668392
2006-04-24 07:32:56 51°13.602 2°56.098 -999 4.980768 32.650662 3.668392
2006-04-24 07:33:01 51°13.602 2°56.098 -999 4.980664 32.650422 3.668392
2006-04-24 07:33:06 51°13.602 2°56.098 -999 4.980664 32.650422 3.668392
2006-04-24 07:33:11 51°13.602 2°56.098 -999 4.980664 32.650422 3.668392
2006-04-24 07:33:16 51°13.602 2°56.098 -999 4.980664 32.650945 3.668392
2006-04-24 07:33:21 51°13.602 2°56.098 -999 4.980561 32.650705 3.668392
2006-04-24 07:33:26 51°13.602 2°56.098 -999 4.980561 32.650705 3.668392
2006-04-24 07:33:31 51°13.602 2°56.098 -999 4.980457 32.649941 3.668392
2006-04-24 07:33:36 51°13.602 2°56.098 -999 4.980457 32.649941 3.668392
2006-04-24 07:33:41 51°13.602 2°56.098 -999 4.980457 32.649941 3.668392
2006-04-24 07:33:46 51°13.602 2°56.098 -999 4.980353 32.649701 3.668392
2006-04-24 07:33:51 51°13.602 2°56.098 -999 4.980353 32.650225 3.668392
2006-04-24 07:33:56 51°13.602 2°56.098 -999 4.980249 32.649461 3.668392
2006-04-24 07:34:01 51°13.602 2°56.098 -999 4.980249 32.649984 3.702101
2006-04-24 07:34:06 51°13.602 2°56.098 -999 4.980249 32.649984 3.702101
2006-04-24 07:34:11 51°13.602 2°56.098 -999 4.980145 32.649221 3.668392
2006-04-24 07:34:16 51°13.602 2°56.098 -999 4.980145 32.649744 3.668392
2006-04-24 07:34:21 51°13.602 2°56.098 -999 4.980145 32.649744 3.668392
2006-04-24 07:34:26 51°13.602 2°56.098 -999 4.980041 32.649504 3.668392
2006-04-24 07:34:31 51°13.602 2°56.098 -999 4.980041 32.650027 3.668392
2006-04-24 07:34:36 51°13.602 2°56.098 -999 4.980041 32.650027 3.668392
2006-04-24 07:34:41 51°13.602 2°56.098 -999 4.979937 32.649264 3.668392
2006-04-24 07:34:46 51°13.602 2°56.099 -999 4.979937 32.649787 3.668392
2006-04-24 07:34:51 51°13.602 2°56.099 -999 4.979937 32.649787 3.702101
2006-04-24 07:34:56 51°13.602 2°56.099 -999 4.97973 32.64826 3.702101
2006-04-24 07:35:01 51°13.602 2°56.099 -999 4.979833 32.649547 3.668392
2006-04-24 07:35:06 51°13.602 2°56.099 -999 4.979833 32.649547 3.668392
2006-04-24 07:35:11 51°13.602 2°56.099 -999 4.97973 32.649307 3.668392
2006-04-24 07:35:16 51°13.602 2°56.099 -999 4.979626 32.648543 3.668392
2006-04-24 07:35:21 51°13.602 2°56.099 -999 4.979626 32.649066 3.668392
2006-04-24 07:35:26 51°13.602 2°56.099 -999 4.979626 32.649066 3.668392
2006-04-24 07:35:31 51°13.602 2°56.099 -999 4.979522 32.648826 3.702101
2006-04-24 07:35:36 51°13.602 2°56.099 -999 4.979522 32.648826 3.702101
2006-04-24 07:35:41 51°13.602 2°56.099 -999 4.979522 32.64935 3.702101
2006-04-24 07:35:46 51°13.602 2°56.098 -999 4.979522 32.648826 3.668392
2006-04-24 07:35:51 51°13.602 2°56.098 -999 4.979418 32.649109 3.702101
2006-04-24 07:35:56 51°13.602 2°56.098 -999 4.979418 32.649109 3.668392
2006-04-24 07:36:01 51°13.602 2°56.098 -999 4.979314 32.648346 3.668392
2006-04-24 07:36:06 51°13.602 2°56.098 -999 4.979314 32.648346 3.668392
2006-04-24 07:36:11 51°13.602 2°56.098 -999 4.979314 32.648869 3.702101
2006-04-24 07:36:16 51°13.602 2°56.098 -999 4.97921 32.648105 3.668392
2006-04-24 07:36:21 51°13.602 2°56.098 -999 4.97921 32.648629 3.668392
2006-04-24 07:36:26 51°13.602 2°56.098 -999 4.979106 32.648389 3.668392
2006-04-24 07:36:31 51°13.602 2°56.098 -999 4.979106 32.648912 3.668392
2006-04-24 07:36:36 51°13.602 2°56.098 -999 4.979106 32.648912 3.668392
2006-04-24 07:36:41 51°13.602 2°56.098 -999 4.979106 32.649436 3.668392
2006-04-24 07:36:46 51°13.602 2°56.098 -999 4.979106 32.649436 3.702101
2006-04-24 07:36:51 51°13.602 2°56.098 -999 4.979002 32.649196 3.668392
2006-04-24 07:36:56 51°13.602 2°56.098 -999 4.978899 32.648432 3.702101
2006-04-24 07:37:01 51°13.601 2°56.098 -999 4.978899 32.648432 3.668392
2006-04-24 07:37:06 51°13.601 2°56.098 -999 4.978899 32.648432 3.668392
2006-04-24 07:37:11 51°13.601 2°56.098 -999 4.978899 32.648432 3.668392
2006-04-24 07:37:16 51°13.601 2°56.098 -999 4.978795 32.647668 3.668392
2006-04-24 07:37:21 51°13.601 2°56.098 -999 4.978795 32.648191 3.668392
2006-04-24 07:37:26 51°13.601 2°56.098 -999 4.978691 32.647428 3.702101
2006-04-24 07:37:31 51°13.601 2°56.098 -999 4.978691 32.647951 3.702101
2006-04-24 07:37:36 51°13.601 2°56.098 -999 4.978691 32.647951 3.702101
2006-04-24 07:37:41 51°13.601 2°56.098 -999 4.978587 32.647187 3.668392
2006-04-24 07:37:46 51°13.601 2°56.098 -999 4.978587 32.648235 3.668392
2006-04-24 07:37:51 51°13.601 2°56.098 -999 4.978587 32.648235 3.668392
2006-04-24 07:37:56 51°13.601 2°56.098 -999 4.978483 32.647994 3.702101
2006-04-24 07:38:01 51°13.601 2°56.098 -999 4.978483 32.648518 3.668392
2006-04-24 07:38:06 51°13.601 2°56.098 -999 4.978483 32.648518 3.668392
2006-04-24 07:38:11 51°13.601 2°56.098 -999 4.978379 32.647754 3.668392
2006-04-24 07:38:16 51°13.601 2°56.098 -999 4.978379 32.648278 3.668392
2006-04-24 07:38:21 51°13.601 2°56.098 -999 4.978275 32.647514 3.702101
2006-04-24 07:38:26 51°13.601 2°56.098 -999 4.978275 32.647514 3.668392
2006-04-24 07:38:31 51°13.601 2°56.099 -999 4.978275 32.648037 3.668392
2006-04-24 07:38:36 51°13.602 2°56.099 -999 4.978275 32.648037 3.668392
2006-04-24 07:38:41 51°13.601 2°56.099 -999 4.978171 32.647273 3.668392
2006-04-24 07:38:46 51°13.601 2°56.099 -999 4.978068 32.647033 3.702101
2006-04-24 07:38:51 51°13.601 2°56.099 -999 4.978068 32.647033 3.702101
2006-04-24 07:38:56 51°13.601 2°56.099 -999 4.978068 32.647557 3.668392
2006-04-24 07:39:01 51°13.601 2°56.099 -999 4.978068 32.647557 3.668392
2006-04-24 07:39:06 51°13.601 2°56.099 -999 4.978068 32.647557 3.668392
2006-04-24 07:39:11 51°13.601 2°56.099 -999 4.977964 32.647317 3.668392
2006-04-24 07:39:16 51°13.601 2°56.099 -999 4.977964 32.647317 3.668392
2006-04-24 07:39:21 51°13.601 2°56.099 -999 4.97786 32.646553 3.702101
2006-04-24 07:39:26 51°13.602 2°56.099 -999 4.97786 32.647076 3.668392
2006-04-24 07:39:31 51°13.602 2°56.099 -999 4.97786 32.6476 3.668392
2006-04-24 07:39:36 51°13.602 2°56.099 -999 4.97786 32.6476 3.668392
2006-04-24 07:39:41 51°13.602 2°56.099 -999 4.977756 32.64736 3.668392
2006-04-24 07:39:46 51°13.602 2°56.099 -999 4.977756 32.64736 3.668392
2006-04-24 07:39:51 51°13.602 2°56.099 -999 4.977652 32.646596 3.668392
2006-04-24 07:39:56 51°13.601 2°56.099 -999 4.977652 32.646596 3.668392
2006-04-24 07:40:01 51°13.601 2°56.099 -999 4.977652 32.647643 3.668392
2006-04-24 07:40:06 51°13.602 2°56.099 -999 4.977652 32.647643 3.668392
2006-04-24 07:40:11 51°13.601 2°56.099 -999 4.977548 32.646879 3.668392
2006-04-24 07:40:16 51°13.601 2°56.099 -999 4.977548 32.647403 3.668392
2006-04-24 07:40:21 51°13.601 2°56.099 -999 4.977548 32.647403 3.702101
2006-04-24 07:40:26 51°13.601 2°56.099 -999 4.977444 32.646639 3.668392
2006-04-24 07:40:31 51°13.601 2°56.099 -999 4.977444 32.647163 3.668392
2006-04-24 07:40:36 51°13.601 2°56.099 -999 4.977444 32.647163 3.668392
2006-04-24 07:40:41 51°13.601 2°56.099 -999 4.977444 32.647687 3.668392
2006-04-24 07:40:46 51°13.601 2°56.099 -999 4.977237 32.646158 3.702101
2006-04-24 07:40:51 51°13.601 2°56.099 -999 4.977237 32.646682 3.702101
2006-04-24 07:40:56 51°13.601 2°56.099 -999 4.977237 32.646682 3.668392
2006-04-24 07:41:01 51°13.601 2°56.099 -999 4.977133 32.646442 3.668392
2006-04-24 07:41:06 51°13.601 2°56.099 -999 4.977133 32.646442 3.668392
2006-04-24 07:41:11 51°13.601 2°56.099 -999 4.977133 32.646966 3.668392
2006-04-24 07:41:16 51°13.601 2°56.099 -999 4.977133 32.646966 3.702101
2006-04-24 07:41:21 51°13.601 2°56.099 -999 4.977029 32.646202 3.668392
2006-04-24 07:41:26 51°13.601 2°56.099 -999 4.977029 32.646202 3.668392
2006-04-24 07:41:31 51°13.601 2°56.099 -999 4.977029 32.646725 3.668392
2006-04-24 07:41:36 51°13.601 2°56.099 -999 4.977029 32.646725 3.668392
2006-04-24 07:41:41 51°13.601 2°56.099 -999 4.976925 32.646485 3.668392
2006-04-24 07:41:46 51°13.601 2°56.099 -999 4.976925 32.646485 3.668392
2006-04-24 07:41:51 51°13.601 2°56.099 -999 4.976821 32.646245 3.702101
2006-04-24 07:41:56 51°13.601 2°56.099 -999 4.976821 32.646245 3.668392
2006-04-24 07:42:01 51°13.601 2°56.098 -999 4.976821 32.646245 3.668392
2006-04-24 07:42:06 51°13.601 2°56.098 -999 4.976821 32.646245 3.668392
2006-04-24 07:42:11 51°13.601 2°56.098 -999 4.976717 32.646005 3.668392
2006-04-24 07:42:16 51°13.601 2°56.098 -999 4.976717 32.646005 3.702101
2006-04-24 07:42:20 51°13.601 2°56.098 -999 4.976717 32.646528 3.668392
2006-04-24 07:42:24 51°13.601 2°56.098 -999 4.976717 32.647052 3.702101
2006-04-24 07:42:28 51°13.601 2°56.098 -999 4.976613 32.646288 3.668392
2006-04-24 07:42:33 51°13.601 2°56.098 -999 4.976613 32.646288 3.668392
2006-04-24 07:42:38 51°13.601 2°56.098 -999 4.976613 32.646812 3.668392
2006-04-24 07:42:42 51°13.601 2°56.098 -999 4.97651 32.646048 3.668392
2006-04-24 07:42:48 51°13.601 2°56.098 -999 4.97651 32.646572 3.668392
2006-04-24 07:42:52 51°13.601 2°56.098 -999 4.976406 32.645808 3.668392
2006-04-24 07:42:58 51°13.601 2°56.098 -999 4.976406 32.646331 3.668392
2006-04-24 07:43:02 51°13.601 2°56.098 -999 4.976406 32.646331 3.668392
2006-04-24 07:43:08 51°13.601 2°56.098 -999 4.976406 32.646331 3.702101
2006-04-24 07:43:13 51°13.601 2°56.098 -999 4.976302 32.646091 3.668392
2006-04-24 07:43:18 51°13.601 2°56.098 -999 4.976302 32.646091 3.668392
2006-04-24 07:43:23 51°13.601 2°56.098 -999 4.976198 32.645851 3.702101
2006-04-24 07:43:28 51°13.601 2°56.098 -999 4.976198 32.645851 3.668392
2006-04-24 07:43:33 51°13.601 2°56.098 -999 4.976198 32.645851 3.668392
2006-04-24 07:43:37 51°13.601 2°56.099 -999 4.976094 32.645611 3.668392
2006-04-24 07:43:43 51°13.601 2°56.099 -999 4.976094 32.645611 3.668392
2006-04-24 07:43:48 51°13.601 2°56.099 -999 4.976094 32.646135 3.668392
2006-04-24 07:43:52 51°13.601 2°56.099 -999 4.97599 32.64537 3.702101
2006-04-24 07:43:56 51°13.601 2°56.099 -999 4.97599 32.645894 3.668392
2006-04-24 07:44:02 51°13.601 2°56.099 -999 4.97599 32.645894 3.668392
2006-04-24 07:44:08 51°13.601 2°56.099 -999 4.97599 32.645894 3.668392
2006-04-24 07:44:12 51°13.601 2°56.099 -999 4.97599 32.645894 3.702101
2006-04-24 07:44:17 51°13.601 2°56.099 -999 4.975886 32.645654 3.668392
2006-04-24 07:44:23 51°13.601 2°56.099 -999 4.975886 32.645654 3.668392
2006-04-24 07:44:28 51°13.601 2°56.099 -999 4.975783 32.645938 3.668392
2006-04-24 07:44:32 51°13.601 2°56.099 -999 4.975783 32.645938 3.668392
2006-04-24 07:44:38 51°13.601 2°56.099 -999 4.975783 32.645938 3.668392
2006-04-24 07:44:43 51°13.601 2°56.099 -999 4.975783 32.645938 3.668392
2006-04-24 07:44:48 51°13.601 2°56.099 -999 4.975679 32.645697 3.668392
2006-04-24 07:44:53 51°13.601 2°56.099 -999 4.975679 32.645697 3.668392
2006-04-24 07:44:58 51°13.601 2°56.099 -999 4.975679 32.646221 3.668392
2006-04-24 07:45:03 51°13.601 2°56.099 -999 4.975679 32.646221 3.668392
2006-04-24 07:45:08 51°13.601 2°56.099 -999 4.975575 32.645457 3.668392
2006-04-24 07:45:13 51°13.601 2°56.099 -999 4.975575 32.645981 3.668392
2006-04-24 07:45:18 51°13.601 2°56.099 -999 4.975471 32.645217 3.668392
2006-04-24 07:45:23 51°13.601 2°56.099 -999 4.975471 32.645217 3.668392
2006-04-24 07:45:28 51°13.601 2°56.099 -999 4.975471 32.645741 3.702101
2006-04-24 07:45:32 51°13.601 2°56.099 -999 4.975471 32.645741 3.702101
2006-04-24 07:45:38 51°13.601 2°56.099 -999 4.975367 32.6455 3.668392
2006-04-24 07:45:42 51°13.601 2°56.099 -999 4.975367 32.6455 3.668392
2006-04-24 07:45:47 51°13.601 2°56.099 -999 4.975263 32.644736 3.668392
2006-04-24 07:45:52 51°13.601 2°56.099 -999 4.975263 32.64526 3.668392
2006-04-24 07:45:57 51°13.601 2°56.099 -999 4.975263 32.645784 3.668392
2006-04-24 07:46:02 51°13.601 2°56.099 -999 4.975263 32.645784 3.668392
2006-04-24 07:46:07 51°13.601 2°56.099 -999 4.975263 32.64526 3.702101
2006-04-24 07:46:12 51°13.601 2°56.099 -999 4.975159 32.64502 3.668392
2006-04-24 07:46:18 51°13.601 2°56.099 -999 4.975159 32.645544 3.702101
2006-04-24 07:46:23 51°13.601 2°56.099 -999 4.975055 32.64478 3.702101
2006-04-24 07:46:28 51°13.601 2°56.099 -999 4.975055 32.64478 3.668392
2006-04-24 07:46:33 51°13.601 2°56.099 -999 4.975055 32.64478 3.668392
2006-04-24 07:46:38 51°13.601 2°56.099 -999 4.975055 32.645304 3.668392
2006-04-24 07:46:43 51°13.601 2°56.099 -999 4.975055 32.645828 3.702101
2006-04-24 07:46:48 51°13.601 2°56.099 -999 4.974952 32.645063 3.668392
2006-04-24 07:46:53 51°13.601 2°56.099 -999 4.974952 32.645587 3.668392
2006-04-24 07:46:58 51°13.601 2°56.099 -999 4.974848 32.644823 3.668392
2006-04-24 07:47:02 51°13.601 2°56.099 -999 4.974848 32.644823 3.668392
2006-04-24 07:47:07 51°13.601 2°56.099 -999 4.974848 32.645347 3.668392
2006-04-24 07:47:12 51°13.601 2°56.099 -999 4.974744 32.644583 3.668392
2006-04-24 07:47:18 51°13.601 2°56.099 -999 4.974744 32.644583 3.668392
2006-04-24 07:47:22 51°13.601 2°56.099 -999 4.974744 32.644583 3.668392
2006-04-24 07:47:27 51°13.601 2°56.099 -999 4.97464 32.644342 3.668392
2006-04-24 07:47:33 51°13.601 2°56.099 -999 4.97464 32.644342 3.668392
2006-04-24 07:47:38 51°13.601 2°56.099 -999 4.97464 32.644866 3.668392
2006-04-24 07:47:43 51°13.601 2°56.099 -999 4.97464 32.644866 3.668392
2006-04-24 07:47:48 51°13.601 2°56.099 -999 4.974536 32.644102 3.668392
2006-04-24 07:47:53 51°13.601 2°56.099 -999 4.974536 32.644626 3.668392
2006-04-24 07:47:58 51°13.601 2°56.099 -999 4.974536 32.64515 3.668392
2006-04-24 07:48:03 51°13.601 2°56.099 -999 4.974536 32.64515 3.668392
2006-04-24 07:48:07 51°13.602 2°56.1 -999 4.974536 32.64515 3.668392
2006-04-24 07:48:13 51°13.602 2°56.1 -999 4.974432 32.64491 3.668392
2006-04-24 07:48:18 51°13.602 2°56.1 -999 4.974328 32.644146 3.668392
2006-04-24 07:48:23 51°13.602 2°56.1 -999 4.974328 32.644146 3.668392
2006-04-24 07:48:28 51°13.602 2°56.1 -999 4.974328 32.64467 3.668392
2006-04-24 07:48:33 51°13.602 2°56.1 -999 4.974328 32.64467 3.668392
2006-04-24 07:48:38 51°13.602 2°56.1 -999 4.974328 32.64467 3.668392
2006-04-24 07:48:43 51°13.602 2°56.1 -999 4.974224 32.644429 3.668392
2006-04-24 07:48:48 51°13.602 2°56.1 -999 4.974224 32.644429 3.668392
2006-04-24 07:48:52 51°13.601 2°56.1 -999 4.974224 32.644429 3.668392
2006-04-24 07:48:58 51°13.601 2°56.1 -999 4.974121 32.644189 3.702101
2006-04-24 07:49:03 51°13.601 2°56.1 -999 4.974121 32.644189 3.702101
2006-04-24 07:49:08 51°13.601 2°56.1 -999 4.974121 32.644189 3.668392
2006-04-24 07:49:13 51°13.601 2°56.1 -999 4.974121 32.644189 3.668392
2006-04-24 07:49:18 51°13.601 2°56.099 -999 4.974121 32.644713 3.668392
2006-04-24 07:49:23 51°13.601 2°56.099 -999 4.974017 32.644473 3.702101
2006-04-24 07:49:28 51°13.601 2°56.099 -999 4.974017 32.644473 3.668392
2006-04-24 07:49:32 51°13.601 2°56.099 -999 4.974017 32.644473 3.668392
2006-04-24 07:49:38 51°13.601 2°56.099 -999 4.973913 32.644233 3.702101
2006-04-24 07:49:43 51°13.601 2°56.099 -999 4.973913 32.644233 3.668392
2006-04-24 07:49:48 51°13.601 2°56.1 -999 4.973809 32.643468 3.668392
2006-04-24 07:49:52 51°13.601 2°56.1 -999 4.973809 32.643992 3.668392
2006-04-24 07:49:57 51°13.601 2°56.099 -999 4.973809 32.643992 3.668392
2006-04-24 07:50:03 51°13.601 2°56.099 -999 4.973809 32.643992 3.668392
2006-04-24 07:50:07 51°13.601 2°56.099 -999 4.973809 32.643992 3.668392
2006-04-24 07:50:12 51°13.601 2°56.099 -999 4.973705 32.643752 3.668392
2006-04-24 07:50:18 51°13.602 2°56.099 -999 4.973705 32.644276 3.668392
2006-04-24 07:50:22 51°13.602 2°56.099 -999 4.973705 32.644276 3.702101
2006-04-24 07:50:27 51°13.602 2°56.099 -999 4.973601 32.643512 3.668392
2006-04-24 07:50:32 51°13.602 2°56.099 -999 4.973601 32.643512 3.668392
2006-04-24 07:50:38 51°13.602 2°56.099 -999 4.973601 32.644036 3.668392
2006-04-24 07:50:43 51°13.602 2°56.099 -999 4.973601 32.644036 3.668392
2006-04-24 07:50:48 51°13.602 2°56.099 -999 4.973601 32.64456 3.668392
2006-04-24 07:50:52 51°13.602 2°56.099 -999 4.973497 32.643796 3.668392
2006-04-24 07:50:57 51°13.602 2°56.099 -999 4.973497 32.643796 3.668392
2006-04-24 07:51:02 51°13.602 2°56.099 -999 4.973497 32.643796 3.668392
2006-04-24 07:51:08 51°13.602 2°56.099 -999 4.973394 32.643555 3.668392
2006-04-24 07:51:13 51°13.602 2°56.099 -999 4.973394 32.643555 3.668392
2006-04-24 07:51:18 51°13.602 2°56.099 -999 4.973394 32.644079 3.668392
2006-04-24 07:51:22 51°13.602 2°56.099 -999 4.97329 32.643315 3.668392
2006-04-24 07:51:27 51°13.602 2°56.099 -999 4.97329 32.643315 3.668392
2006-04-24 07:51:32 51°13.602 2°56.1 -999 4.97329 32.643315 3.668392
2006-04-24 07:51:37 51°13.602 2°56.1 -999 4.97329 32.643839 3.668392
2006-04-24 07:51:42 51°13.602 2°56.1 -999 4.97329 32.643839 3.668392
2006-04-24 07:51:48 51°13.602 2°56.1 -999 4.973186 32.643599 3.668392
2006-04-24 07:51:52 51°13.602 2°56.1 -999 4.973186 32.643599 3.668392
2006-04-24 07:51:58 51°13.602 2°56.1 -999 4.973186 32.643599 3.668392
2006-04-24 07:52:02 51°13.602 2°56.1 -999 4.973186 32.643599 3.668392
2006-04-24 07:52:07 51°13.602 2°56.1 -999 4.973082 32.643358 3.702101
2006-04-24 07:52:12 51°13.602 2°56.1 -999 4.973082 32.643358 3.668392
2006-04-24 07:52:17 51°13.602 2°56.1 -999 4.972978 32.643118 3.668392
2006-04-24 07:52:22 51°13.602 2°56.1 -999 4.972978 32.643118 3.668392
2006-04-24 07:52:28 51°13.602 2°56.1 -999 4.972978 32.643642 3.702101
2006-04-24 07:52:32 51°13.602 2°56.1 -999 4.972978 32.643642 3.702101
2006-04-24 07:52:38 51°13.602 2°56.1 -999 4.972978 32.643642 3.702101
2006-04-24 07:52:43 51°13.602 2°56.1 -999 4.972978 32.643642 3.668392
2006-04-24 07:52:48 51°13.602 2°56.1 -999 4.972874 32.643402 3.668392
2006-04-24 07:52:53 51°13.602 2°56.1 -999 4.972874 32.643402 3.668392
2006-04-24 07:52:58 51°13.602 2°56.1 -999 4.972874 32.643926 3.668392
2006-04-24 07:53:03 51°13.602 2°56.1 -999 4.972874 32.643926 3.668392
2006-04-24 07:53:08 51°13.602 2°56.1 -999 4.97277 32.643162 3.668392
2006-04-24 07:53:12 51°13.602 2°56.1 -999 4.97277 32.643686 3.702101
2006-04-24 07:53:17 51°13.602 2°56.1 -999 4.97277 32.643686 3.668392
2006-04-24 07:53:22 51°13.602 2°56.1 -999 4.972666 32.642921 3.668392
2006-04-24 07:53:27 51°13.602 2°56.1 -999 4.972666 32.642921 3.668392
2006-04-24 07:53:32 51°13.602 2°56.1 -999 4.972666 32.642921 3.668392
2006-04-24 07:53:38 51°13.602 2°56.1 -999 4.972666 32.643446 3.668392
2006-04-24 07:53:42 51°13.602 2°56.1 -999 4.972563 32.643205 3.668392
2006-04-24 07:53:47 51°13.602 2°56.1 -999 4.972563 32.643205 3.668392
2006-04-24 07:53:52 51°13.602 2°56.1 -999 4.972563 32.643205 3.668392
2006-04-24 07:53:57 51°13.602 2°56.1 -999 4.972563 32.643205 3.668392
2006-04-24 07:54:02 51°13.602 2°56.1 -999 4.972563 32.643205 3.668392
2006-04-24 07:54:07 51°13.602 2°56.1 -999 4.972459 32.642965 3.668392
2006-04-24 07:54:12 51°13.602 2°56.1 -999 4.972459 32.642965 3.668392
2006-04-24 07:54:17 51°13.602 2°56.1 -999 4.972355 32.642725 3.668392
2006-04-24 07:54:22 51°13.602 2°56.1 -999 4.972355 32.643249 3.668392
2006-04-24 07:54:27 51°13.602 2°56.1 -999 4.972355 32.643249 3.702101
2006-04-24 07:54:32 51°13.602 2°56.1 -999 4.972355 32.643249 3.702101
2006-04-24 07:54:38 51°13.602 2°56.1 -999 4.972355 32.643249 3.702101
2006-04-24 07:54:42 51°13.602 2°56.1 -999 4.972251 32.642484 3.668392
2006-04-24 07:54:47 51°13.602 2°56.1 -999 4.972251 32.643009 3.668392
2006-04-24 07:54:52 51°13.602 2°56.1 -999 4.972251 32.643533 3.668392
2006-04-24 07:54:57 51°13.602 2°56.1 -999 4.972251 32.643533 3.668392
2006-04-24 07:55:02 51°13.602 2°56.1 -999 4.972251 32.643533 3.668392
2006-04-24 07:55:07 51°13.602 2°56.1 -999 4.972147 32.642768 3.668392
2006-04-24 07:55:12 51°13.602 2°56.1 -999 4.972147 32.642768 3.668392
2006-04-24 07:55:17 51°13.602 2°56.1 -999 4.972147 32.643293 3.702101
2006-04-24 07:55:23 51°13.602 2°56.1 -999 4.972147 32.643293 3.668392
2006-04-24 07:55:28 51°13.602 2°56.1 -999 4.972043 32.643053 3.668392
2006-04-24 07:55:33 51°13.602 2°56.1 -999 4.972043 32.643053 3.668392
2006-04-24 07:55:38 51°13.602 2°56.1 -999 4.972043 32.643053 3.668392
2006-04-24 07:55:42 51°13.602 2°56.1 -999 4.971939 32.642812 3.668392
2006-04-24 07:55:48 51°13.602 2°56.1 -999 4.972043 32.643577 3.668392
2006-04-24 07:55:53 51°13.602 2°56.1 -999 4.971939 32.642812 3.668392
2006-04-24 07:55:58 51°13.602 2°56.1 -999 4.971939 32.643337 3.668392
2006-04-24 07:56:03 51°13.602 2°56.1 -999 4.971939 32.643337 3.668392
2006-04-24 07:56:08 51°13.602 2°56.1 -999 4.971836 32.642572 3.668392
2006-04-24 07:56:12 51°13.602 2°56.1 -999 4.971836 32.642572 3.668392
2006-04-24 07:56:18 51°13.602 2°56.1 -999 4.971836 32.643096 3.668392
2006-04-24 07:56:23 51°13.602 2°56.1 -999 4.971836 32.643096 3.668392
2006-04-24 07:56:28 51°13.602 2°56.1 -999 4.971732 32.642332 3.668392
2006-04-24 07:56:32 51°13.602 2°56.1 -999 4.971732 32.642332 3.668392
2006-04-24 07:56:38 51°13.602 2°56.1 -999 4.971732 32.642856 3.668392
2006-04-24 07:56:43 51°13.602 2°56.1 -999 4.971732 32.643381 3.668392
2006-04-24 07:56:48 51°13.602 2°56.1 -999 4.971732 32.643381 3.668392
2006-04-24 07:56:53 51°13.602 2°56.1 -999 4.971628 32.642616 3.668392
2006-04-24 07:56:58 51°13.602 2°56.1 -999 4.971628 32.642616 3.668392
2006-04-24 07:57:02 51°13.602 2°56.1 -999 4.971628 32.642616 3.668392
2006-04-24 07:57:06 51°13.602 2°56.1 -999 4.971628 32.64314 3.668392
2006-04-24 07:57:12 51°13.602 2°56.1 -999 4.971524 32.6429 3.668392
2006-04-24 07:57:18 51°13.602 2°56.1 -999 4.971524 32.6429 3.668392
2006-04-24 07:57:23 51°13.602 2°56.1 -999 4.971524 32.643424 3.668392
2006-04-24 07:57:28 51°13.602 2°56.1 -999 4.97142 32.642135 3.668392
2006-04-24 07:57:32 51°13.602 2°56.1 -999 4.97142 32.642135 3.668392
2006-04-24 07:57:38 51°13.602 2°56.1 -999 4.97142 32.642659 3.668392
2006-04-24 07:57:42 51°13.602 2°56.1 -999 4.97142 32.642659 3.668392
2006-04-24 07:57:47 51°13.602 2°56.1 -999 4.97142 32.643184 3.668392
2006-04-24 07:57:52 51°13.602 2°56.1 -999 4.971316 32.642419 3.668392
2006-04-24 07:57:58 51°13.602 2°56.1 -999 4.971316 32.642419 3.668392
2006-04-24 07:58:03 51°13.602 2°56.1 -999 4.971316 32.642419 3.668392
2006-04-24 07:58:07 51°13.602 2°56.1 -999 4.971316 32.642944 3.668392
2006-04-24 07:58:12 51°13.602 2°56.1 -999 4.971316 32.643468 3.668392
2006-04-24 07:58:18 51°13.602 2°56.1 -999 4.971212 32.642703 3.668392
2006-04-24 07:58:22 51°13.602 2°56.1 -999 4.971212 32.642703 3.668392
2006-04-24 07:58:27 51°13.602 2°56.1 -999 4.971212 32.642703 3.668392
2006-04-24 07:58:32 51°13.602 2°56.1 -999 4.971212 32.642703 3.668392
2006-04-24 07:58:38 51°13.602 2°56.1 -999 4.971212 32.643228 3.668392
2006-04-24 07:58:43 51°13.602 2°56.1 -999 4.971108 32.642463 3.668392
2006-04-24 07:58:48 51°13.602 2°56.1 -999 4.971108 32.642988 3.668392
2006-04-24 07:58:53 51°13.602 2°56.1 -999 4.971108 32.642988 3.668392
2006-04-24 07:58:58 51°13.602 2°56.1 -999 4.971005 32.642747 3.668392
2006-04-24 07:59:03 51°13.602 2°56.1 -999 4.971005 32.642747 3.668392
2006-04-24 07:59:08 51°13.602 2°56.1 -999 4.971005 32.642747 3.668392
2006-04-24 07:59:12 51°13.602 2°56.1 -999 4.971005 32.642747 3.668392
2006-04-24 07:59:18 51°13.603 2°56.1 -999 4.971005 32.642747 3.702101
2006-04-24 07:59:22 51°13.603 2°56.1 -999 4.970901 32.642507 3.668392
2006-04-24 07:59:27 51°13.603 2°56.1 -999 4.970901 32.643031 3.668392
2006-04-24 07:59:32 51°13.603 2°56.1 -999 4.970901 32.643031 3.668392
2006-04-24 07:59:38 51°13.603 2°56.1 -999 4.970901 32.643031 3.668392
2006-04-24 07:59:43 51°13.603 2°56.1 -999 4.970797 32.642267 3.668392
2006-04-24 07:59:48 51°13.603 2°56.1 -999 4.970797 32.642267 3.668392
2006-04-24 07:59:52 51°13.603 2°56.1 -999 4.970797 32.642267 3.668392
2006-04-24 07:59:57 51°13.603 2°56.1 -999 4.970797 32.642791 3.668392
2006-04-24 08:00:02 51°13.602 2°56.1 -999 4.970797 32.642791 3.668392
2006-04-24 08:00:08 51°13.602 2°56.1 -999 4.970693 32.642551 3.668392
2006-04-24 08:00:12 51°13.602 2°56.1 -999 4.970693 32.642551 3.668392
2006-04-24 08:00:18 51°13.602 2°56.1 -999 4.970693 32.642551 3.668392
2006-04-24 08:00:23 51°13.602 2°56.1 -999 4.970589 32.64231 3.668392
2006-04-24 08:00:28 51°13.602 2°56.1 -999 4.970589 32.64231 3.668392
2006-04-24 08:00:32 51°13.602 2°56.1 -999 4.970589 32.64231 3.668392
2006-04-24 08:00:37 51°13.602 2°56.1 -999 4.970589 32.642835 3.668392
2006-04-24 08:00:42 51°13.602 2°56.1 -999 4.970589 32.642835 3.668392
2006-04-24 08:00:48 51°13.602 2°56.1 -999 4.970485 32.64207 3.668392
2006-04-24 08:00:52 51°13.602 2°56.1 -999 4.970485 32.642595 3.668392
2006-04-24 08:00:58 51°13.602 2°56.1 -999 4.970485 32.642595 3.668392
2006-04-24 08:01:02 51°13.602 2°56.1 -999 4.970485 32.642595 3.668392
2006-04-24 08:01:07 51°13.602 2°56.1 -999 4.970485 32.643119 3.702101
2006-04-24 08:01:12 51°13.602 2°56.1 -999 4.970485 32.643119 3.668392
2006-04-24 08:01:17 51°13.602 2°56.1 -999 4.970381 32.642879 3.668392
2006-04-24 08:01:22 51°13.602 2°56.1 -999 4.970381 32.642879 3.668392
2006-04-24 08:01:27 51°13.602 2°56.1 -999 4.970278 32.642114 3.668392
2006-04-24 08:01:32 51°13.602 2°56.1 -999 4.970278 32.642114 3.668392
2006-04-24 08:01:37 51°13.602 2°56.1 -999 4.970278 32.642114 3.668392
2006-04-24 08:01:43 51°13.602 2°56.1 -999 4.970278 32.642639 3.668392
2006-04-24 08:01:48 51°13.602 2°56.1 -999 4.970278 32.642639 3.668392
2006-04-24 08:01:52 51°13.602 2°56.1 -999 4.970174 32.642398 3.668392
2006-04-24 08:01:58 51°13.602 2°56.1 -999 4.970174 32.642398 3.668392
2006-04-24 08:02:03 51°13.602 2°56.1 -999 4.970174 32.642398 3.668392
2006-04-24 08:02:08 51°13.602 2°56.1 -999 4.970174 32.642923 3.668392
2006-04-24 08:02:12 51°13.602 2°56.1 -999 4.970174 32.642923 3.668392
2006-04-24 08:02:17 51°13.602 2°56.1 -999 4.97007 32.642683 3.668392
2006-04-24 08:02:22 51°13.602 2°56.1 -999 4.97007 32.642683 3.668392
2006-04-24 08:02:27 51°13.602 2°56.1 -999 4.97007 32.642683 3.668392
2006-04-24 08:02:32 51°13.602 2°56.1 -999 4.97007 32.642683 3.668392
2006-04-24 08:02:37 51°13.602 2°56.1 -999 4.97007 32.643207 3.668392
2006-04-24 08:02:42 51°13.602 2°56.1 -999 4.969966 32.642442 3.668392
2006-04-24 08:02:48 51°13.602 2°56.1 -999 4.969966 32.642442 3.668392
2006-04-24 08:02:53 51°13.602 2°56.1 -999 4.969966 32.642967 3.668392
2006-04-24 08:02:58 51°13.602 2°56.1 -999 4.969862 32.642202 3.668392
2006-04-24 08:03:03 51°13.603 2°56.1 -999 4.969862 32.642202 3.668392
2006-04-24 08:03:08 51°13.603 2°56.1 -999 4.969862 32.642727 3.668392
2006-04-24 08:03:13 51°13.603 2°56.1 -999 4.969758 32.641962 3.668392
2006-04-24 08:03:18 51°13.603 2°56.1 -999 4.969862 32.642727 3.668392
2006-04-24 08:03:23 51°13.603 2°56.1 -999 4.969758 32.642486 3.668392
2006-04-24 08:03:27 51°13.603 2°56.1 -999 4.969758 32.643011 3.668392
2006-04-24 08:03:33 51°13.603 2°56.1 -999 4.969758 32.643011 3.668392
2006-04-24 08:03:38 51°13.603 2°56.1 -999 4.969758 32.643011 3.668392
2006-04-24 08:03:43 51°13.603 2°56.1 -999 4.969758 32.643011 3.668392
2006-04-24 08:03:48 51°13.603 2°56.1 -999 4.969654 32.642771 3.668392
2006-04-24 08:03:53 51°13.603 2°56.1 -999 4.969654 32.642771 3.668392
2006-04-24 08:03:58 51°13.603 2°56.1 -999 4.969654 32.642771 3.668392
2006-04-24 08:04:03 51°13.603 2°56.1 -999 4.969654 32.642771 3.668392
2006-04-24 08:04:08 51°13.603 2°56.1 -999 4.96955 32.64253 3.668392
2006-04-24 08:04:13 51°13.603 2°56.1 -999 4.96955 32.64253 3.668392
2006-04-24 08:04:18 51°13.603 2°56.1 -999 4.96955 32.64253 3.668392
2006-04-24 08:04:23 51°13.603 2°56.1 -999 4.969551 32.643055 3.668392
2006-04-24 08:04:28 51°13.603 2°56.1 -999 4.969447 32.64229 3.668392
2006-04-24 08:04:33 51°13.603 2°56.099 -999 4.969447 32.64229 3.668392
2006-04-24 08:04:38 51°13.603 2°56.099 -999 4.969447 32.642815 3.668392
2006-04-24 08:04:43 51°13.603 2°56.099 -999 4.969447 32.64334 3.668392
2006-04-24 08:04:48 51°13.602 2°56.099 -999 4.969447 32.64334 3.668392
2006-04-24 08:04:53 51°13.602 2°56.099 -999 4.969343 32.642575 3.668392
2006-04-24 08:04:58 51°13.602 2°56.099 -999 4.969343 32.643099 3.668392
2006-04-24 08:05:03 51°13.602 2°56.099 -999 4.969343 32.643099 3.668392
2006-04-24 08:05:08 51°13.602 2°56.099 -999 4.969239 32.642334 3.668392
2006-04-24 08:05:12 51°13.602 2°56.099 -999 4.969239 32.642334 3.668392
2006-04-24 08:05:18 51°13.603 2°56.099 -999 4.969239 32.642859 3.668392
2006-04-24 08:05:23 51°13.603 2°56.099 -999 4.969239 32.642859 3.668392
2006-04-24 08:05:28 51°13.603 2°56.099 -999 4.969135 32.642619 3.668392
2006-04-24 08:05:32 51°13.603 2°56.099 -999 4.969135 32.642619 3.668392
2006-04-24 08:05:38 51°13.603 2°56.099 -999 4.969135 32.642619 3.668392
2006-04-24 08:05:43 51°13.603 2°56.099 -999 4.969135 32.643144 3.668392
2006-04-24 08:05:48 51°13.603 2°56.099 -999 4.969031 32.642378 3.668392
2006-04-24 08:05:52 51°13.603 2°56.099 -999 4.969031 32.642903 3.668392
2006-04-24 08:05:58 51°13.603 2°56.099 -999 4.969031 32.642903 3.668392
2006-04-24 08:06:03 51°13.603 2°56.099 -999 4.969031 32.642903 3.668392
2006-04-24 08:06:08 51°13.603 2°56.099 -999 4.969031 32.642903 3.668392
2006-04-24 08:06:13 51°13.603 2°56.099 -999 4.968927 32.642663 3.668392
2006-04-24 08:06:18 51°13.602 2°56.099 -999 4.968927 32.642663 3.668392
2006-04-24 08:06:22 51°13.602 2°56.099 -999 4.968927 32.643188 3.668392
2006-04-24 08:06:27 51°13.602 2°56.099 -999 4.968927 32.643188 3.668392
2006-04-24 08:06:32 51°13.602 2°56.099 -999 4.968927 32.643188 3.668392
2006-04-24 08:06:37 51°13.602 2°56.099 -999 4.968823 32.642423 3.668392
2006-04-24 08:06:42 51°13.602 2°56.099 -999 4.968823 32.642947 3.668392
2006-04-24 08:06:48 51°13.602 2°56.099 -999 4.968823 32.643472 3.668392
2006-04-24 08:06:52 51°13.602 2°56.099 -999 4.96872 32.642707 3.668392
2006-04-24 08:06:58 51°13.602 2°56.099 -999 4.96872 32.642707 3.668392
2006-04-24 08:07:02 51°13.602 2°56.099 -999 4.96872 32.642707 3.668392
2006-04-24 08:07:08 51°13.602 2°56.099 -999 4.96872 32.643232 3.668392
2006-04-24 08:07:13 51°13.602 2°56.099 -999 4.968616 32.642467 3.668392
2006-04-24 08:07:17 51°13.602 2°56.099 -999 4.968616 32.642467 3.668392
2006-04-24 08:07:23 51°13.602 2°56.099 -999 4.968616 32.642992 3.668392
2006-04-24 08:07:28 51°13.602 2°56.099 -999 4.968616 32.642992 3.668392
2006-04-24 08:07:33 51°13.602 2°56.099 -999 4.968616 32.642992 3.668392
2006-04-24 08:07:38 51°13.602 2°56.099 -999 4.968512 32.642751 3.668392
2006-04-24 08:07:43 51°13.602 2°56.099 -999 4.968512 32.643276 3.668392